<?xml version="1.0" encoding="UTF-8" standalone="no" ?>
<gpx xmlns="http://www.topografix.com/GPX/1/1" xmlns:xsi="http://www.w3.org/2001/XMLSchema-instance" xsi:schemaLocation="http://www.topografix.com/GPX/1/1 http://www.topografix.com/GPX/1/1/gpx.xsd" version="1.1" creator="VisuGPX - https://www.visugpx.com">
  <metadata>
    <name>Minerve</name>
    <desc><![CDATA[Rando minerve : boucle   A/R sur GR]]></desc>
  </metadata>
  <trk>
    <name><![CDATA[ACTIVE LOG095849]]></name>
    <trkseg>
      <trkpt lat="43.35562" lon="2.74248">
        <ele>203.409</ele>
        <time>2011-03-20T08:58:47Z</time>
      </trkpt>
      <trkpt lat="43.35564" lon="2.74248">
        <ele>203.228</ele>
        <time>2011-03-20T09:00:17Z</time>
      </trkpt>
      <trkpt lat="43.35563" lon="2.74248">
        <ele>202.128</ele>
        <time>2011-03-20T09:00:47Z</time>
      </trkpt>
      <trkpt lat="43.35566" lon="2.74254">
        <ele>202.833</ele>
        <time>2011-03-20T09:01:07Z</time>
      </trkpt>
      <trkpt lat="43.35565" lon="2.74257">
        <ele>202.908</ele>
        <time>2011-03-20T09:01:46Z</time>
      </trkpt>
      <trkpt lat="43.35565" lon="2.74257">
        <ele>203.194</ele>
        <time>2011-03-20T09:01:59Z</time>
      </trkpt>
      <trkpt lat="43.35554" lon="2.74235">
        <ele>202.97</ele>
        <time>2011-03-20T09:02:20Z</time>
      </trkpt>
      <trkpt lat="43.35549" lon="2.74217">
        <ele>203.524</ele>
        <time>2011-03-20T09:02:51Z</time>
      </trkpt>
      <trkpt lat="43.35538" lon="2.74183">
        <ele>203.307</ele>
        <time>2011-03-20T09:03:10Z</time>
      </trkpt>
      <trkpt lat="43.35536" lon="2.74154">
        <ele>204.371</ele>
        <time>2011-03-20T09:03:25Z</time>
      </trkpt>
      <trkpt lat="43.35537" lon="2.74139">
        <ele>204.565</ele>
        <time>2011-03-20T09:03:40Z</time>
      </trkpt>
      <trkpt lat="43.35537" lon="2.74129">
        <ele>204.38</ele>
        <time>2011-03-20T09:03:46Z</time>
      </trkpt>
      <trkpt lat="43.35529" lon="2.74103">
        <ele>203.907</ele>
        <time>2011-03-20T09:04:08Z</time>
      </trkpt>
      <trkpt lat="43.35529" lon="2.74103">
        <ele>203.692</ele>
        <time>2011-03-20T09:04:33Z</time>
      </trkpt>
      <trkpt lat="43.35545" lon="2.74111">
        <ele>203.419</ele>
        <time>2011-03-20T09:04:48Z</time>
      </trkpt>
      <trkpt lat="43.3555" lon="2.74097">
        <ele>204.067</ele>
        <time>2011-03-20T09:04:56Z</time>
      </trkpt>
      <trkpt lat="43.35543" lon="2.7407">
        <ele>206.141</ele>
        <time>2011-03-20T09:05:10Z</time>
      </trkpt>
      <trkpt lat="43.35542" lon="2.74067">
        <ele>205.994</ele>
        <time>2011-03-20T09:05:11Z</time>
      </trkpt>
      <trkpt lat="43.35539" lon="2.74051">
        <ele>206.889</ele>
        <time>2011-03-20T09:05:23Z</time>
      </trkpt>
      <trkpt lat="43.35535" lon="2.74032">
        <ele>208.192</ele>
        <time>2011-03-20T09:05:36Z</time>
      </trkpt>
      <trkpt lat="43.35534" lon="2.74014">
        <ele>209.583</ele>
        <time>2011-03-20T09:05:48Z</time>
      </trkpt>
      <trkpt lat="43.35534" lon="2.74">
        <ele>209.961</ele>
        <time>2011-03-20T09:05:56Z</time>
      </trkpt>
      <trkpt lat="43.35535" lon="2.73982">
        <ele>211.756</ele>
        <time>2011-03-20T09:06:06Z</time>
      </trkpt>
      <trkpt lat="43.35536" lon="2.73966">
        <ele>212.733</ele>
        <time>2011-03-20T09:06:29Z</time>
      </trkpt>
      <trkpt lat="43.35535" lon="2.7394">
        <ele>214.603</ele>
        <time>2011-03-20T09:06:59Z</time>
      </trkpt>
      <trkpt lat="43.35538" lon="2.73911">
        <ele>217.163</ele>
        <time>2011-03-20T09:07:13Z</time>
      </trkpt>
      <trkpt lat="43.35538" lon="2.73898">
        <ele>217.948</ele>
        <time>2011-03-20T09:07:22Z</time>
      </trkpt>
      <trkpt lat="43.35542" lon="2.73867">
        <ele>221.455</ele>
        <time>2011-03-20T09:07:38Z</time>
      </trkpt>
      <trkpt lat="43.35541" lon="2.73836">
        <ele>224.643</ele>
        <time>2011-03-20T09:07:53Z</time>
      </trkpt>
      <trkpt lat="43.35535" lon="2.73793">
        <ele>225.965</ele>
        <time>2011-03-20T09:08:17Z</time>
      </trkpt>
      <trkpt lat="43.35541" lon="2.73764">
        <ele>228.086</ele>
        <time>2011-03-20T09:09:03Z</time>
      </trkpt>
      <trkpt lat="43.35553" lon="2.73722">
        <ele>229.94</ele>
        <time>2011-03-20T09:09:27Z</time>
      </trkpt>
      <trkpt lat="43.35555" lon="2.73715">
        <ele>229.988</ele>
        <time>2011-03-20T09:09:31Z</time>
      </trkpt>
      <trkpt lat="43.35557" lon="2.73688">
        <ele>229.014</ele>
        <time>2011-03-20T09:09:48Z</time>
      </trkpt>
      <trkpt lat="43.35554" lon="2.73685">
        <ele>226.885</ele>
        <time>2011-03-20T09:09:56Z</time>
      </trkpt>
      <trkpt lat="43.35558" lon="2.73684">
        <ele>228.657</ele>
        <time>2011-03-20T09:10:55Z</time>
      </trkpt>
      <trkpt lat="43.3556" lon="2.73691">
        <ele>229.59</ele>
        <time>2011-03-20T09:11:01Z</time>
      </trkpt>
      <trkpt lat="43.3556" lon="2.73693">
        <ele>229.524</ele>
        <time>2011-03-20T09:11:03Z</time>
      </trkpt>
      <trkpt lat="43.35555" lon="2.73707">
        <ele>230.051</ele>
        <time>2011-03-20T09:11:17Z</time>
      </trkpt>
      <trkpt lat="43.35556" lon="2.73708">
        <ele>230.288</ele>
        <time>2011-03-20T09:11:18Z</time>
      </trkpt>
      <trkpt lat="43.35565" lon="2.73702">
        <ele>231.568</ele>
        <time>2011-03-20T09:11:26Z</time>
      </trkpt>
      <trkpt lat="43.35572" lon="2.73691">
        <ele>231.681</ele>
        <time>2011-03-20T09:11:33Z</time>
      </trkpt>
      <trkpt lat="43.35575" lon="2.73649">
        <ele>234.865</ele>
        <time>2011-03-20T09:11:53Z</time>
      </trkpt>
      <trkpt lat="43.35577" lon="2.73639">
        <ele>234.971</ele>
        <time>2011-03-20T09:11:58Z</time>
      </trkpt>
      <trkpt lat="43.35576" lon="2.73601">
        <ele>237.633</ele>
        <time>2011-03-20T09:12:19Z</time>
      </trkpt>
      <trkpt lat="43.35574" lon="2.73596">
        <ele>236.968</ele>
        <time>2011-03-20T09:12:22Z</time>
      </trkpt>
      <trkpt lat="43.3557" lon="2.73582">
        <ele>237.621</ele>
        <time>2011-03-20T09:12:28Z</time>
      </trkpt>
      <trkpt lat="43.35572" lon="2.73545">
        <ele>238.453</ele>
        <time>2011-03-20T09:12:42Z</time>
      </trkpt>
      <trkpt lat="43.35578" lon="2.73501">
        <ele>239.867</ele>
        <time>2011-03-20T09:12:55Z</time>
      </trkpt>
      <trkpt lat="43.35586" lon="2.73474">
        <ele>241.413</ele>
        <time>2011-03-20T09:13:05Z</time>
      </trkpt>
      <trkpt lat="43.3559" lon="2.73462">
        <ele>242.119</ele>
        <time>2011-03-20T09:13:09Z</time>
      </trkpt>
      <trkpt lat="43.35607" lon="2.7343">
        <ele>243.847</ele>
        <time>2011-03-20T09:13:20Z</time>
      </trkpt>
      <trkpt lat="43.35622" lon="2.73402">
        <ele>244.794</ele>
        <time>2011-03-20T09:13:30Z</time>
      </trkpt>
      <trkpt lat="43.3564" lon="2.7335">
        <ele>246.037</ele>
        <time>2011-03-20T09:13:46Z</time>
      </trkpt>
      <trkpt lat="43.35639" lon="2.73309">
        <ele>246.782</ele>
        <time>2011-03-20T09:14:00Z</time>
      </trkpt>
      <trkpt lat="43.3564" lon="2.73297">
        <ele>246.631</ele>
        <time>2011-03-20T09:14:05Z</time>
      </trkpt>
      <trkpt lat="43.35646" lon="2.73279">
        <ele>245.968</ele>
        <time>2011-03-20T09:14:13Z</time>
      </trkpt>
      <trkpt lat="43.35647" lon="2.73277">
        <ele>246.242</ele>
        <time>2011-03-20T09:14:14Z</time>
      </trkpt>
      <trkpt lat="43.3566" lon="2.73262">
        <ele>246.925</ele>
        <time>2011-03-20T09:14:24Z</time>
      </trkpt>
      <trkpt lat="43.35675" lon="2.73242">
        <ele>248.486</ele>
        <time>2011-03-20T09:14:38Z</time>
      </trkpt>
      <trkpt lat="43.35686" lon="2.73218">
        <ele>250.158</ele>
        <time>2011-03-20T09:14:54Z</time>
      </trkpt>
      <trkpt lat="43.35694" lon="2.73184">
        <ele>249.248</ele>
        <time>2011-03-20T09:15:12Z</time>
      </trkpt>
      <trkpt lat="43.35696" lon="2.7318">
        <ele>248.841</ele>
        <time>2011-03-20T09:15:14Z</time>
      </trkpt>
      <trkpt lat="43.35698" lon="2.73175">
        <ele>249.194</ele>
        <time>2011-03-20T09:15:17Z</time>
      </trkpt>
      <trkpt lat="43.357" lon="2.73172">
        <ele>248.257</ele>
        <time>2011-03-20T09:15:19Z</time>
      </trkpt>
      <trkpt lat="43.35702" lon="2.73164">
        <ele>248.244</ele>
        <time>2011-03-20T09:15:23Z</time>
      </trkpt>
      <trkpt lat="43.35705" lon="2.73156">
        <ele>248.099</ele>
        <time>2011-03-20T09:15:28Z</time>
      </trkpt>
      <trkpt lat="43.35686" lon="2.73145">
        <ele>248.502</ele>
        <time>2011-03-20T09:15:42Z</time>
      </trkpt>
      <trkpt lat="43.35661" lon="2.73152">
        <ele>248.92</ele>
        <time>2011-03-20T09:15:59Z</time>
      </trkpt>
      <trkpt lat="43.35635" lon="2.73148">
        <ele>248.32</ele>
        <time>2011-03-20T09:16:17Z</time>
      </trkpt>
      <trkpt lat="43.3563" lon="2.73112">
        <ele>251.005</ele>
        <time>2011-03-20T09:16:39Z</time>
      </trkpt>
      <trkpt lat="43.35645" lon="2.73092">
        <ele>254.263</ele>
        <time>2011-03-20T09:16:56Z</time>
      </trkpt>
      <trkpt lat="43.35661" lon="2.73076">
        <ele>256.52</ele>
        <time>2011-03-20T09:17:13Z</time>
      </trkpt>
      <trkpt lat="43.35665" lon="2.7307">
        <ele>257.963</ele>
        <time>2011-03-20T09:17:18Z</time>
      </trkpt>
      <trkpt lat="43.35675" lon="2.73057">
        <ele>259.552</ele>
        <time>2011-03-20T09:17:29Z</time>
      </trkpt>
      <trkpt lat="43.3568" lon="2.73054">
        <ele>259.983</ele>
        <time>2011-03-20T09:17:33Z</time>
      </trkpt>
      <trkpt lat="43.35683" lon="2.7305">
        <ele>260.496</ele>
        <time>2011-03-20T09:17:36Z</time>
      </trkpt>
      <trkpt lat="43.35696" lon="2.73029">
        <ele>263.401</ele>
        <time>2011-03-20T09:17:52Z</time>
      </trkpt>
      <trkpt lat="43.35703" lon="2.73016">
        <ele>264.734</ele>
        <time>2011-03-20T09:18:01Z</time>
      </trkpt>
      <trkpt lat="43.35713" lon="2.72999">
        <ele>266.76</ele>
        <time>2011-03-20T09:18:16Z</time>
      </trkpt>
      <trkpt lat="43.35718" lon="2.72996">
        <ele>267.377</ele>
        <time>2011-03-20T09:18:20Z</time>
      </trkpt>
      <trkpt lat="43.35729" lon="2.72983">
        <ele>268.85</ele>
        <time>2011-03-20T09:18:33Z</time>
      </trkpt>
      <trkpt lat="43.35732" lon="2.72978">
        <ele>269.391</ele>
        <time>2011-03-20T09:18:36Z</time>
      </trkpt>
      <trkpt lat="43.35742" lon="2.7297">
        <ele>270.578</ele>
        <time>2011-03-20T09:18:44Z</time>
      </trkpt>
      <trkpt lat="43.35744" lon="2.72967">
        <ele>271.872</ele>
        <time>2011-03-20T09:18:47Z</time>
      </trkpt>
      <trkpt lat="43.35762" lon="2.72946">
        <ele>272.955</ele>
        <time>2011-03-20T09:19:06Z</time>
      </trkpt>
      <trkpt lat="43.35778" lon="2.72925">
        <ele>276.129</ele>
        <time>2011-03-20T09:19:23Z</time>
      </trkpt>
      <trkpt lat="43.35789" lon="2.72907">
        <ele>277.711</ele>
        <time>2011-03-20T09:19:38Z</time>
      </trkpt>
      <trkpt lat="43.35791" lon="2.72904">
        <ele>278.054</ele>
        <time>2011-03-20T09:19:42Z</time>
      </trkpt>
      <trkpt lat="43.35798" lon="2.72891">
        <ele>279.856</ele>
        <time>2011-03-20T09:19:51Z</time>
      </trkpt>
      <trkpt lat="43.35803" lon="2.72881">
        <ele>280.467</ele>
        <time>2011-03-20T09:19:58Z</time>
      </trkpt>
      <trkpt lat="43.35806" lon="2.72875">
        <ele>281.183</ele>
        <time>2011-03-20T09:20:02Z</time>
      </trkpt>
      <trkpt lat="43.35808" lon="2.72871">
        <ele>281.411</ele>
        <time>2011-03-20T09:20:05Z</time>
      </trkpt>
      <trkpt lat="43.35817" lon="2.72852">
        <ele>282.23</ele>
        <time>2011-03-20T09:20:17Z</time>
      </trkpt>
      <trkpt lat="43.35822" lon="2.72844">
        <ele>283.903</ele>
        <time>2011-03-20T09:20:23Z</time>
      </trkpt>
      <trkpt lat="43.35828" lon="2.72834">
        <ele>285.186</ele>
        <time>2011-03-20T09:20:32Z</time>
      </trkpt>
      <trkpt lat="43.3583" lon="2.72826">
        <ele>285.897</ele>
        <time>2011-03-20T09:20:37Z</time>
      </trkpt>
      <trkpt lat="43.3583" lon="2.72788">
        <ele>286.95</ele>
        <time>2011-03-20T09:20:59Z</time>
      </trkpt>
      <trkpt lat="43.3582" lon="2.72737">
        <ele>287.955</ele>
        <time>2011-03-20T09:21:26Z</time>
      </trkpt>
      <trkpt lat="43.35809" lon="2.72695">
        <ele>288.507</ele>
        <time>2011-03-20T09:21:49Z</time>
      </trkpt>
      <trkpt lat="43.35806" lon="2.7265">
        <ele>289.499</ele>
        <time>2011-03-20T09:22:12Z</time>
      </trkpt>
      <trkpt lat="43.35821" lon="2.72637">
        <ele>290.338</ele>
        <time>2011-03-20T09:22:27Z</time>
      </trkpt>
      <trkpt lat="43.35841" lon="2.72631">
        <ele>293.413</ele>
        <time>2011-03-20T09:22:45Z</time>
      </trkpt>
      <trkpt lat="43.35862" lon="2.72624">
        <ele>295.761</ele>
        <time>2011-03-20T09:23:04Z</time>
      </trkpt>
      <trkpt lat="43.35864" lon="2.72622">
        <ele>296.364</ele>
        <time>2011-03-20T09:23:06Z</time>
      </trkpt>
      <trkpt lat="43.35868" lon="2.72613">
        <ele>297.289</ele>
        <time>2011-03-20T09:23:13Z</time>
      </trkpt>
      <trkpt lat="43.35869" lon="2.7261">
        <ele>297.526</ele>
        <time>2011-03-20T09:23:15Z</time>
      </trkpt>
      <trkpt lat="43.35874" lon="2.72603">
        <ele>298.31</ele>
        <time>2011-03-20T09:23:21Z</time>
      </trkpt>
      <trkpt lat="43.35885" lon="2.72595">
        <ele>299.618</ele>
        <time>2011-03-20T09:23:32Z</time>
      </trkpt>
      <trkpt lat="43.35907" lon="2.72595">
        <ele>300.781</ele>
        <time>2011-03-20T09:23:48Z</time>
      </trkpt>
      <trkpt lat="43.35914" lon="2.72595">
        <ele>302.755</ele>
        <time>2011-03-20T09:23:54Z</time>
      </trkpt>
      <trkpt lat="43.35915" lon="2.72595">
        <ele>302.654</ele>
        <time>2011-03-20T09:23:56Z</time>
      </trkpt>
      <trkpt lat="43.35941" lon="2.72589">
        <ele>305.934</ele>
        <time>2011-03-20T09:24:14Z</time>
      </trkpt>
      <trkpt lat="43.35963" lon="2.72585">
        <ele>309.035</ele>
        <time>2011-03-20T09:24:32Z</time>
      </trkpt>
      <trkpt lat="43.35974" lon="2.72577">
        <ele>309.968</ele>
        <time>2011-03-20T09:24:41Z</time>
      </trkpt>
      <trkpt lat="43.3598" lon="2.72557">
        <ele>311.297</ele>
        <time>2011-03-20T09:24:55Z</time>
      </trkpt>
      <trkpt lat="43.35987" lon="2.72549">
        <ele>312.956</ele>
        <time>2011-03-20T09:25:02Z</time>
      </trkpt>
      <trkpt lat="43.35991" lon="2.72545">
        <ele>312.849</ele>
        <time>2011-03-20T09:25:05Z</time>
      </trkpt>
      <trkpt lat="43.35992" lon="2.72542">
        <ele>312.697</ele>
        <time>2011-03-20T09:25:07Z</time>
      </trkpt>
      <trkpt lat="43.36009" lon="2.72521">
        <ele>315.21</ele>
        <time>2011-03-20T09:25:26Z</time>
      </trkpt>
      <trkpt lat="43.36018" lon="2.72518">
        <ele>316.413</ele>
        <time>2011-03-20T09:25:36Z</time>
      </trkpt>
      <trkpt lat="43.36025" lon="2.72517">
        <ele>315.321</ele>
        <time>2011-03-20T09:25:40Z</time>
      </trkpt>
      <trkpt lat="43.36028" lon="2.72514">
        <ele>316.624</ele>
        <time>2011-03-20T09:25:43Z</time>
      </trkpt>
      <trkpt lat="43.36033" lon="2.72508">
        <ele>316.516</ele>
        <time>2011-03-20T09:25:48Z</time>
      </trkpt>
      <trkpt lat="43.36054" lon="2.72478">
        <ele>319.731</ele>
        <time>2011-03-20T09:26:12Z</time>
      </trkpt>
      <trkpt lat="43.36065" lon="2.72472">
        <ele>320.724</ele>
        <time>2011-03-20T09:26:22Z</time>
      </trkpt>
      <trkpt lat="43.36069" lon="2.72472">
        <ele>321.083</ele>
        <time>2011-03-20T09:26:26Z</time>
      </trkpt>
      <trkpt lat="43.36071" lon="2.72472">
        <ele>321.491</ele>
        <time>2011-03-20T09:26:28Z</time>
      </trkpt>
      <trkpt lat="43.36075" lon="2.7247">
        <ele>321.957</ele>
        <time>2011-03-20T09:26:32Z</time>
      </trkpt>
      <trkpt lat="43.36081" lon="2.72467">
        <ele>322.603</ele>
        <time>2011-03-20T09:26:39Z</time>
      </trkpt>
      <trkpt lat="43.36093" lon="2.72446">
        <ele>324.174</ele>
        <time>2011-03-20T09:26:56Z</time>
      </trkpt>
      <trkpt lat="43.36094" lon="2.72445">
        <ele>324.226</ele>
        <time>2011-03-20T09:26:57Z</time>
      </trkpt>
      <trkpt lat="43.36109" lon="2.72438">
        <ele>326.66</ele>
        <time>2011-03-20T09:27:11Z</time>
      </trkpt>
      <trkpt lat="43.36124" lon="2.72435">
        <ele>328.735</ele>
        <time>2011-03-20T09:27:28Z</time>
      </trkpt>
      <trkpt lat="43.36128" lon="2.72434">
        <ele>329.296</ele>
        <time>2011-03-20T09:27:30Z</time>
      </trkpt>
      <trkpt lat="43.36133" lon="2.72425">
        <ele>329.874</ele>
        <time>2011-03-20T09:27:37Z</time>
      </trkpt>
      <trkpt lat="43.36131" lon="2.72409">
        <ele>330.315</ele>
        <time>2011-03-20T09:27:58Z</time>
      </trkpt>
      <trkpt lat="43.3613" lon="2.72411">
        <ele>330.089</ele>
        <time>2011-03-20T09:31:29Z</time>
      </trkpt>
      <trkpt lat="43.36129" lon="2.72397">
        <ele>330.508</ele>
        <time>2011-03-20T09:31:54Z</time>
      </trkpt>
      <trkpt lat="43.36132" lon="2.72343">
        <ele>331.51</ele>
        <time>2011-03-20T09:32:25Z</time>
      </trkpt>
      <trkpt lat="43.36135" lon="2.72327">
        <ele>331.406</ele>
        <time>2011-03-20T09:32:40Z</time>
      </trkpt>
      <trkpt lat="43.36139" lon="2.72283">
        <ele>334.615</ele>
        <time>2011-03-20T09:33:04Z</time>
      </trkpt>
      <trkpt lat="43.36141" lon="2.72252">
        <ele>334.844</ele>
        <time>2011-03-20T09:33:22Z</time>
      </trkpt>
      <trkpt lat="43.36145" lon="2.72229">
        <ele>334.781</ele>
        <time>2011-03-20T09:33:34Z</time>
      </trkpt>
      <trkpt lat="43.36147" lon="2.72225">
        <ele>335.551</ele>
        <time>2011-03-20T09:33:37Z</time>
      </trkpt>
      <trkpt lat="43.36153" lon="2.72205">
        <ele>336.398</ele>
        <time>2011-03-20T09:33:51Z</time>
      </trkpt>
      <trkpt lat="43.36166" lon="2.72176">
        <ele>337.758</ele>
        <time>2011-03-20T09:34:12Z</time>
      </trkpt>
      <trkpt lat="43.36175" lon="2.72159">
        <ele>339.686</ele>
        <time>2011-03-20T09:34:25Z</time>
      </trkpt>
      <trkpt lat="43.36179" lon="2.72152">
        <ele>339.478</ele>
        <time>2011-03-20T09:34:30Z</time>
      </trkpt>
      <trkpt lat="43.36183" lon="2.72139">
        <ele>340.496</ele>
        <time>2011-03-20T09:34:39Z</time>
      </trkpt>
      <trkpt lat="43.36187" lon="2.72111">
        <ele>342.457</ele>
        <time>2011-03-20T09:34:57Z</time>
      </trkpt>
      <trkpt lat="43.36195" lon="2.72084">
        <ele>344.284</ele>
        <time>2011-03-20T09:35:13Z</time>
      </trkpt>
      <trkpt lat="43.36207" lon="2.72069">
        <ele>345.434</ele>
        <time>2011-03-20T09:35:27Z</time>
      </trkpt>
      <trkpt lat="43.36213" lon="2.72057">
        <ele>346.386</ele>
        <time>2011-03-20T09:35:36Z</time>
      </trkpt>
      <trkpt lat="43.36216" lon="2.72049">
        <ele>346.145</ele>
        <time>2011-03-20T09:35:41Z</time>
      </trkpt>
      <trkpt lat="43.36228" lon="2.72018">
        <ele>349.152</ele>
        <time>2011-03-20T09:36:02Z</time>
      </trkpt>
      <trkpt lat="43.36233" lon="2.71999">
        <ele>349.785</ele>
        <time>2011-03-20T09:36:13Z</time>
      </trkpt>
      <trkpt lat="43.36236" lon="2.71991">
        <ele>350.147</ele>
        <time>2011-03-20T09:36:18Z</time>
      </trkpt>
      <trkpt lat="43.36244" lon="2.71969">
        <ele>351.911</ele>
        <time>2011-03-20T09:36:32Z</time>
      </trkpt>
      <trkpt lat="43.36258" lon="2.71948">
        <ele>352.391</ele>
        <time>2011-03-20T09:36:51Z</time>
      </trkpt>
      <trkpt lat="43.36265" lon="2.7194">
        <ele>353.478</ele>
        <time>2011-03-20T09:36:58Z</time>
      </trkpt>
      <trkpt lat="43.36275" lon="2.7193">
        <ele>356.133</ele>
        <time>2011-03-20T09:37:09Z</time>
      </trkpt>
      <trkpt lat="43.36277" lon="2.71929">
        <ele>351.114</ele>
        <time>2011-03-20T09:37:10Z</time>
      </trkpt>
      <trkpt lat="43.36278" lon="2.71928">
        <ele>354.784</ele>
        <time>2011-03-20T09:37:11Z</time>
      </trkpt>
      <trkpt lat="43.36297" lon="2.71913">
        <ele>358.042</ele>
        <time>2011-03-20T09:37:30Z</time>
      </trkpt>
      <trkpt lat="43.3632" lon="2.71892">
        <ele>358.533</ele>
        <time>2011-03-20T09:37:54Z</time>
      </trkpt>
      <trkpt lat="43.36321" lon="2.71882">
        <ele>359.866</ele>
        <time>2011-03-20T09:38:00Z</time>
      </trkpt>
      <trkpt lat="43.36322" lon="2.71843">
        <ele>361.308</ele>
        <time>2011-03-20T09:38:25Z</time>
      </trkpt>
      <trkpt lat="43.36336" lon="2.71816">
        <ele>363.433</ele>
        <time>2011-03-20T09:38:47Z</time>
      </trkpt>
      <trkpt lat="43.36357" lon="2.71802">
        <ele>366.17</ele>
        <time>2011-03-20T09:39:09Z</time>
      </trkpt>
      <trkpt lat="43.36379" lon="2.71792">
        <ele>368.892</ele>
        <time>2011-03-20T09:39:33Z</time>
      </trkpt>
      <trkpt lat="43.36401" lon="2.71787">
        <ele>370.609</ele>
        <time>2011-03-20T09:39:56Z</time>
      </trkpt>
      <trkpt lat="43.3643" lon="2.71778">
        <ele>372.833</ele>
        <time>2011-03-20T09:40:25Z</time>
      </trkpt>
      <trkpt lat="43.36455" lon="2.71766">
        <ele>374.189</ele>
        <time>2011-03-20T09:40:47Z</time>
      </trkpt>
      <trkpt lat="43.36469" lon="2.71759">
        <ele>375.581</ele>
        <time>2011-03-20T09:41:01Z</time>
      </trkpt>
      <trkpt lat="43.36482" lon="2.71753">
        <ele>376.306</ele>
        <time>2011-03-20T09:41:19Z</time>
      </trkpt>
      <trkpt lat="43.36488" lon="2.7175">
        <ele>377.142</ele>
        <time>2011-03-20T09:41:40Z</time>
      </trkpt>
      <trkpt lat="43.36487" lon="2.71748">
        <ele>376.055</ele>
        <time>2011-03-20T09:42:09Z</time>
      </trkpt>
      <trkpt lat="43.36502" lon="2.71735">
        <ele>377.62</ele>
        <time>2011-03-20T09:43:12Z</time>
      </trkpt>
      <trkpt lat="43.36519" lon="2.71724">
        <ele>380.099</ele>
        <time>2011-03-20T09:43:27Z</time>
      </trkpt>
      <trkpt lat="43.36547" lon="2.71693">
        <ele>382.112</ele>
        <time>2011-03-20T09:43:56Z</time>
      </trkpt>
      <trkpt lat="43.36571" lon="2.71673">
        <ele>384.528</ele>
        <time>2011-03-20T09:44:20Z</time>
      </trkpt>
      <trkpt lat="43.36588" lon="2.71659">
        <ele>386.211</ele>
        <time>2011-03-20T09:44:38Z</time>
      </trkpt>
      <trkpt lat="43.3661" lon="2.71647">
        <ele>389.492</ele>
        <time>2011-03-20T09:45:01Z</time>
      </trkpt>
      <trkpt lat="43.36629" lon="2.7163">
        <ele>390.687</ele>
        <time>2011-03-20T09:45:23Z</time>
      </trkpt>
      <trkpt lat="43.36642" lon="2.71623">
        <ele>393.827</ele>
        <time>2011-03-20T09:45:37Z</time>
      </trkpt>
      <trkpt lat="43.36652" lon="2.71619">
        <ele>395.26</ele>
        <time>2011-03-20T09:45:46Z</time>
      </trkpt>
      <trkpt lat="43.36662" lon="2.71604">
        <ele>396.336</ele>
        <time>2011-03-20T09:46:01Z</time>
      </trkpt>
      <trkpt lat="43.36664" lon="2.71566">
        <ele>396.622</ele>
        <time>2011-03-20T09:46:24Z</time>
      </trkpt>
      <trkpt lat="43.36661" lon="2.71553">
        <ele>397.138</ele>
        <time>2011-03-20T09:46:31Z</time>
      </trkpt>
      <trkpt lat="43.36657" lon="2.71513">
        <ele>396.012</ele>
        <time>2011-03-20T09:46:52Z</time>
      </trkpt>
      <trkpt lat="43.36647" lon="2.71481">
        <ele>395.602</ele>
        <time>2011-03-20T09:47:12Z</time>
      </trkpt>
      <trkpt lat="43.36619" lon="2.71473">
        <ele>395.276</ele>
        <time>2011-03-20T09:47:35Z</time>
      </trkpt>
      <trkpt lat="43.36597" lon="2.71462">
        <ele>394.803</ele>
        <time>2011-03-20T09:47:56Z</time>
      </trkpt>
      <trkpt lat="43.36596" lon="2.71444">
        <ele>394.788</ele>
        <time>2011-03-20T09:48:13Z</time>
      </trkpt>
      <trkpt lat="43.36598" lon="2.71427">
        <ele>395.454</ele>
        <time>2011-03-20T09:48:24Z</time>
      </trkpt>
      <trkpt lat="43.36603" lon="2.71391">
        <ele>397.811</ele>
        <time>2011-03-20T09:48:47Z</time>
      </trkpt>
      <trkpt lat="43.36619" lon="2.71362">
        <ele>400.428</ele>
        <time>2011-03-20T09:49:13Z</time>
      </trkpt>
      <trkpt lat="43.36619" lon="2.71361">
        <ele>400.694</ele>
        <time>2011-03-20T09:49:14Z</time>
      </trkpt>
      <trkpt lat="43.36617" lon="2.71355">
        <ele>401.074</ele>
        <time>2011-03-20T09:49:18Z</time>
      </trkpt>
      <trkpt lat="43.36603" lon="2.71319">
        <ele>402.455</ele>
        <time>2011-03-20T09:49:46Z</time>
      </trkpt>
      <trkpt lat="43.36589" lon="2.71295">
        <ele>402.64</ele>
        <time>2011-03-20T09:50:06Z</time>
      </trkpt>
      <trkpt lat="43.36579" lon="2.7128">
        <ele>401.741</ele>
        <time>2011-03-20T09:50:20Z</time>
      </trkpt>
      <trkpt lat="43.36574" lon="2.71247">
        <ele>402.763</ele>
        <time>2011-03-20T09:50:40Z</time>
      </trkpt>
      <trkpt lat="43.36566" lon="2.71221">
        <ele>403.16</ele>
        <time>2011-03-20T09:50:58Z</time>
      </trkpt>
      <trkpt lat="43.36561" lon="2.71219">
        <ele>402.702</ele>
        <time>2011-03-20T09:51:02Z</time>
      </trkpt>
      <trkpt lat="43.36556" lon="2.71219">
        <ele>402.176</ele>
        <time>2011-03-20T09:51:07Z</time>
      </trkpt>
      <trkpt lat="43.36554" lon="2.7122">
        <ele>402.01</ele>
        <time>2011-03-20T09:51:09Z</time>
      </trkpt>
      <trkpt lat="43.3655" lon="2.71214">
        <ele>402.448</ele>
        <time>2011-03-20T09:51:24Z</time>
      </trkpt>
      <trkpt lat="43.36548" lon="2.71215">
        <ele>402.508</ele>
        <time>2011-03-20T09:51:38Z</time>
      </trkpt>
      <trkpt lat="43.36548" lon="2.71215">
        <ele>399.462</ele>
        <time>2011-03-20T09:52:39Z</time>
      </trkpt>
      <trkpt lat="43.36548" lon="2.71215">
        <ele>402.769</ele>
        <time>2011-03-20T09:52:41Z</time>
      </trkpt>
      <trkpt lat="43.36548" lon="2.71215">
        <ele>397.766</ele>
        <time>2011-03-20T09:52:43Z</time>
      </trkpt>
      <trkpt lat="43.36548" lon="2.71215">
        <ele>400.315</ele>
        <time>2011-03-20T09:52:44Z</time>
      </trkpt>
      <trkpt lat="43.36548" lon="2.71215">
        <ele>401.09</ele>
        <time>2011-03-20T09:52:49Z</time>
      </trkpt>
      <trkpt lat="43.36546" lon="2.71216">
        <ele>402.821</ele>
        <time>2011-03-20T09:58:36Z</time>
      </trkpt>
      <trkpt lat="43.36551" lon="2.71219">
        <ele>402.577</ele>
        <time>2011-03-20T09:59:27Z</time>
      </trkpt>
      <trkpt lat="43.36562" lon="2.7122">
        <ele>403.501</ele>
        <time>2011-03-20T09:59:43Z</time>
      </trkpt>
      <trkpt lat="43.36566" lon="2.71217">
        <ele>404.231</ele>
        <time>2011-03-20T09:59:51Z</time>
      </trkpt>
      <trkpt lat="43.36568" lon="2.71214">
        <ele>404.015</ele>
        <time>2011-03-20T09:59:56Z</time>
      </trkpt>
      <trkpt lat="43.36574" lon="2.7124">
        <ele>404.293</ele>
        <time>2011-03-20T10:00:17Z</time>
      </trkpt>
      <trkpt lat="43.36574" lon="2.71241">
        <ele>403.461</ele>
        <time>2011-03-20T10:00:18Z</time>
      </trkpt>
      <trkpt lat="43.36577" lon="2.71266">
        <ele>404.118</ele>
        <time>2011-03-20T10:00:37Z</time>
      </trkpt>
      <trkpt lat="43.36577" lon="2.71269">
        <ele>403.743</ele>
        <time>2011-03-20T10:00:39Z</time>
      </trkpt>
      <trkpt lat="43.36585" lon="2.71294">
        <ele>403.78</ele>
        <time>2011-03-20T10:00:56Z</time>
      </trkpt>
      <trkpt lat="43.36604" lon="2.71321">
        <ele>404.495</ele>
        <time>2011-03-20T10:01:18Z</time>
      </trkpt>
      <trkpt lat="43.36616" lon="2.71355">
        <ele>402.939</ele>
        <time>2011-03-20T10:01:38Z</time>
      </trkpt>
      <trkpt lat="43.36618" lon="2.71366">
        <ele>402.355</ele>
        <time>2011-03-20T10:01:45Z</time>
      </trkpt>
      <trkpt lat="43.36602" lon="2.71392">
        <ele>399.7</ele>
        <time>2011-03-20T10:02:05Z</time>
      </trkpt>
      <trkpt lat="43.36597" lon="2.71431">
        <ele>397.376</ele>
        <time>2011-03-20T10:02:26Z</time>
      </trkpt>
      <trkpt lat="43.36597" lon="2.71442">
        <ele>397.226</ele>
        <time>2011-03-20T10:02:42Z</time>
      </trkpt>
      <trkpt lat="43.36575" lon="2.71466">
        <ele>394.533</ele>
        <time>2011-03-20T10:03:03Z</time>
      </trkpt>
      <trkpt lat="43.36571" lon="2.71466">
        <ele>394.681</ele>
        <time>2011-03-20T10:03:18Z</time>
      </trkpt>
      <trkpt lat="43.36559" lon="2.71468">
        <ele>393.796</ele>
        <time>2011-03-20T10:03:51Z</time>
      </trkpt>
      <trkpt lat="43.36533" lon="2.71479">
        <ele>390.725</ele>
        <time>2011-03-20T10:04:11Z</time>
      </trkpt>
      <trkpt lat="43.36514" lon="2.7149">
        <ele>388.824</ele>
        <time>2011-03-20T10:04:27Z</time>
      </trkpt>
      <trkpt lat="43.36506" lon="2.71492">
        <ele>388.563</ele>
        <time>2011-03-20T10:04:47Z</time>
      </trkpt>
      <trkpt lat="43.36493" lon="2.71495">
        <ele>387.335</ele>
        <time>2011-03-20T10:05:05Z</time>
      </trkpt>
      <trkpt lat="43.36485" lon="2.71499">
        <ele>386.207</ele>
        <time>2011-03-20T10:05:23Z</time>
      </trkpt>
      <trkpt lat="43.36511" lon="2.7149">
        <ele>387.247</ele>
        <time>2011-03-20T10:05:37Z</time>
      </trkpt>
      <trkpt lat="43.36537" lon="2.71475">
        <ele>390.852</ele>
        <time>2011-03-20T10:05:49Z</time>
      </trkpt>
      <trkpt lat="43.36548" lon="2.7147">
        <ele>391.796</ele>
        <time>2011-03-20T10:05:54Z</time>
      </trkpt>
      <trkpt lat="43.36557" lon="2.7147">
        <ele>393.215</ele>
        <time>2011-03-20T10:05:59Z</time>
      </trkpt>
      <trkpt lat="43.3656" lon="2.71469">
        <ele>394.088</ele>
        <time>2011-03-20T10:06:01Z</time>
      </trkpt>
      <trkpt lat="43.36568" lon="2.7147">
        <ele>392.929</ele>
        <time>2011-03-20T10:06:06Z</time>
      </trkpt>
      <trkpt lat="43.36572" lon="2.71468">
        <ele>395.042</ele>
        <time>2011-03-20T10:06:11Z</time>
      </trkpt>
      <trkpt lat="43.36575" lon="2.71468">
        <ele>393.941</ele>
        <time>2011-03-20T10:06:13Z</time>
      </trkpt>
      <trkpt lat="43.36593" lon="2.71469">
        <ele>395.888</ele>
        <time>2011-03-20T10:06:26Z</time>
      </trkpt>
      <trkpt lat="43.36598" lon="2.7147">
        <ele>396.573</ele>
        <time>2011-03-20T10:06:32Z</time>
      </trkpt>
      <trkpt lat="43.36581" lon="2.7147">
        <ele>395.108</ele>
        <time>2011-03-20T10:06:38Z</time>
      </trkpt>
      <trkpt lat="43.36571" lon="2.7147">
        <ele>394.666</ele>
        <time>2011-03-20T10:06:41Z</time>
      </trkpt>
      <trkpt lat="43.36548" lon="2.71469">
        <ele>393.086</ele>
        <time>2011-03-20T10:06:50Z</time>
      </trkpt>
      <trkpt lat="43.36526" lon="2.71485">
        <ele>390.522</ele>
        <time>2011-03-20T10:07:00Z</time>
      </trkpt>
      <trkpt lat="43.36521" lon="2.71487">
        <ele>389.573</ele>
        <time>2011-03-20T10:07:02Z</time>
      </trkpt>
      <trkpt lat="43.36507" lon="2.7149">
        <ele>388.039</ele>
        <time>2011-03-20T10:07:14Z</time>
      </trkpt>
      <trkpt lat="43.36501" lon="2.7149">
        <ele>387.205</ele>
        <time>2011-03-20T10:07:20Z</time>
      </trkpt>
      <trkpt lat="43.36483" lon="2.71494">
        <ele>386.023</ele>
        <time>2011-03-20T10:07:30Z</time>
      </trkpt>
      <trkpt lat="43.36466" lon="2.71506">
        <ele>383.819</ele>
        <time>2011-03-20T10:07:44Z</time>
      </trkpt>
      <trkpt lat="43.36462" lon="2.71509">
        <ele>383.028</ele>
        <time>2011-03-20T10:07:48Z</time>
      </trkpt>
      <trkpt lat="43.36444" lon="2.71515">
        <ele>381.312</ele>
        <time>2011-03-20T10:08:01Z</time>
      </trkpt>
      <trkpt lat="43.36434" lon="2.71516">
        <ele>380.794</ele>
        <time>2011-03-20T10:08:09Z</time>
      </trkpt>
      <trkpt lat="43.36414" lon="2.71511">
        <ele>378.838</ele>
        <time>2011-03-20T10:08:26Z</time>
      </trkpt>
      <trkpt lat="43.36411" lon="2.71506">
        <ele>378.196</ele>
        <time>2011-03-20T10:08:29Z</time>
      </trkpt>
      <trkpt lat="43.36411" lon="2.71501">
        <ele>378.084</ele>
        <time>2011-03-20T10:08:31Z</time>
      </trkpt>
      <trkpt lat="43.36408" lon="2.7149">
        <ele>378.727</ele>
        <time>2011-03-20T10:08:37Z</time>
      </trkpt>
      <trkpt lat="43.36404" lon="2.71475">
        <ele>378.505</ele>
        <time>2011-03-20T10:08:45Z</time>
      </trkpt>
      <trkpt lat="43.36395" lon="2.71468">
        <ele>377.206</ele>
        <time>2011-03-20T10:08:54Z</time>
      </trkpt>
      <trkpt lat="43.36392" lon="2.71459">
        <ele>376.656</ele>
        <time>2011-03-20T10:09:00Z</time>
      </trkpt>
      <trkpt lat="43.36385" lon="2.71423">
        <ele>375.506</ele>
        <time>2011-03-20T10:09:21Z</time>
      </trkpt>
      <trkpt lat="43.36367" lon="2.71383">
        <ele>373.549</ele>
        <time>2011-03-20T10:09:46Z</time>
      </trkpt>
      <trkpt lat="43.36347" lon="2.71361">
        <ele>370.581</ele>
        <time>2011-03-20T10:10:07Z</time>
      </trkpt>
      <trkpt lat="43.36342" lon="2.71357">
        <ele>369.644</ele>
        <time>2011-03-20T10:10:12Z</time>
      </trkpt>
      <trkpt lat="43.36337" lon="2.71349">
        <ele>368.9</ele>
        <time>2011-03-20T10:10:18Z</time>
      </trkpt>
      <trkpt lat="43.36331" lon="2.71346">
        <ele>368.238</ele>
        <time>2011-03-20T10:10:22Z</time>
      </trkpt>
      <trkpt lat="43.36327" lon="2.71346">
        <ele>368.491</ele>
        <time>2011-03-20T10:10:25Z</time>
      </trkpt>
      <trkpt lat="43.3631" lon="2.71341">
        <ele>370.931</ele>
        <time>2011-03-20T10:10:41Z</time>
      </trkpt>
      <trkpt lat="43.36299" lon="2.71333">
        <ele>372.072</ele>
        <time>2011-03-20T10:10:57Z</time>
      </trkpt>
      <trkpt lat="43.36297" lon="2.71332">
        <ele>371.686</ele>
        <time>2011-03-20T10:10:59Z</time>
      </trkpt>
      <trkpt lat="43.36271" lon="2.7134">
        <ele>369.278</ele>
        <time>2011-03-20T10:11:20Z</time>
      </trkpt>
      <trkpt lat="43.36269" lon="2.7134">
        <ele>369.011</ele>
        <time>2011-03-20T10:11:21Z</time>
      </trkpt>
      <trkpt lat="43.36249" lon="2.71361">
        <ele>366.337</ele>
        <time>2011-03-20T10:11:40Z</time>
      </trkpt>
      <trkpt lat="43.36227" lon="2.71386">
        <ele>363.242</ele>
        <time>2011-03-20T10:12:02Z</time>
      </trkpt>
      <trkpt lat="43.36213" lon="2.71407">
        <ele>361.058</ele>
        <time>2011-03-20T10:12:19Z</time>
      </trkpt>
      <trkpt lat="43.362" lon="2.71422">
        <ele>359.16</ele>
        <time>2011-03-20T10:12:33Z</time>
      </trkpt>
      <trkpt lat="43.36184" lon="2.71444">
        <ele>356.051</ele>
        <time>2011-03-20T10:12:50Z</time>
      </trkpt>
      <trkpt lat="43.3617" lon="2.71464">
        <ele>352.984</ele>
        <time>2011-03-20T10:13:06Z</time>
      </trkpt>
      <trkpt lat="43.36153" lon="2.71484">
        <ele>349.673</ele>
        <time>2011-03-20T10:13:23Z</time>
      </trkpt>
      <trkpt lat="43.36136" lon="2.71507">
        <ele>346.52</ele>
        <time>2011-03-20T10:13:39Z</time>
      </trkpt>
      <trkpt lat="43.36119" lon="2.71523">
        <ele>343.321</ele>
        <time>2011-03-20T10:13:56Z</time>
      </trkpt>
      <trkpt lat="43.36098" lon="2.7154">
        <ele>340.074</ele>
        <time>2011-03-20T10:14:15Z</time>
      </trkpt>
      <trkpt lat="43.3608" lon="2.71569">
        <ele>336.824</ele>
        <time>2011-03-20T10:14:35Z</time>
      </trkpt>
      <trkpt lat="43.36059" lon="2.71585">
        <ele>333.851</ele>
        <time>2011-03-20T10:14:53Z</time>
      </trkpt>
      <trkpt lat="43.36039" lon="2.71602">
        <ele>330.752</ele>
        <time>2011-03-20T10:15:10Z</time>
      </trkpt>
      <trkpt lat="43.36037" lon="2.71602">
        <ele>330.693</ele>
        <time>2011-03-20T10:15:11Z</time>
      </trkpt>
      <trkpt lat="43.36016" lon="2.71619">
        <ele>328.102</ele>
        <time>2011-03-20T10:15:28Z</time>
      </trkpt>
      <trkpt lat="43.35998" lon="2.71633">
        <ele>325.166</ele>
        <time>2011-03-20T10:15:45Z</time>
      </trkpt>
      <trkpt lat="43.35977" lon="2.71649">
        <ele>322.028</ele>
        <time>2011-03-20T10:16:03Z</time>
      </trkpt>
      <trkpt lat="43.35971" lon="2.71654">
        <ele>320.486</ele>
        <time>2011-03-20T10:16:10Z</time>
      </trkpt>
      <trkpt lat="43.35963" lon="2.71657">
        <ele>319.62</ele>
        <time>2011-03-20T10:16:16Z</time>
      </trkpt>
      <trkpt lat="43.35952" lon="2.71652">
        <ele>318.671</ele>
        <time>2011-03-20T10:16:25Z</time>
      </trkpt>
      <trkpt lat="43.35949" lon="2.7165">
        <ele>317.974</ele>
        <time>2011-03-20T10:16:29Z</time>
      </trkpt>
      <trkpt lat="43.35944" lon="2.71643">
        <ele>317.749</ele>
        <time>2011-03-20T10:16:34Z</time>
      </trkpt>
      <trkpt lat="43.35935" lon="2.71625">
        <ele>317.234</ele>
        <time>2011-03-20T10:16:48Z</time>
      </trkpt>
      <trkpt lat="43.35915" lon="2.71603">
        <ele>314.395</ele>
        <time>2011-03-20T10:17:08Z</time>
      </trkpt>
      <trkpt lat="43.35896" lon="2.71617">
        <ele>313.111</ele>
        <time>2011-03-20T10:17:23Z</time>
      </trkpt>
      <trkpt lat="43.35882" lon="2.71638">
        <ele>312.098</ele>
        <time>2011-03-20T10:17:38Z</time>
      </trkpt>
      <trkpt lat="43.35859" lon="2.71665">
        <ele>311.089</ele>
        <time>2011-03-20T10:18:00Z</time>
      </trkpt>
      <trkpt lat="43.35825" lon="2.71673">
        <ele>308.371</ele>
        <time>2011-03-20T10:18:23Z</time>
      </trkpt>
      <trkpt lat="43.35801" lon="2.71692">
        <ele>305.265</ele>
        <time>2011-03-20T10:18:43Z</time>
      </trkpt>
      <trkpt lat="43.35773" lon="2.71701">
        <ele>302.259</ele>
        <time>2011-03-20T10:19:04Z</time>
      </trkpt>
      <trkpt lat="43.35739" lon="2.71706">
        <ele>299.39</ele>
        <time>2011-03-20T10:19:28Z</time>
      </trkpt>
      <trkpt lat="43.3573" lon="2.71686">
        <ele>299.829</ele>
        <time>2011-03-20T10:19:44Z</time>
      </trkpt>
      <trkpt lat="43.35733" lon="2.71648">
        <ele>301.047</ele>
        <time>2011-03-20T10:20:05Z</time>
      </trkpt>
      <trkpt lat="43.3574" lon="2.71607">
        <ele>303.311</ele>
        <time>2011-03-20T10:20:29Z</time>
      </trkpt>
      <trkpt lat="43.3574" lon="2.71604">
        <ele>303.403</ele>
        <time>2011-03-20T10:20:31Z</time>
      </trkpt>
      <trkpt lat="43.35734" lon="2.71576">
        <ele>303.867</ele>
        <time>2011-03-20T10:20:47Z</time>
      </trkpt>
      <trkpt lat="43.35719" lon="2.7155">
        <ele>302.505</ele>
        <time>2011-03-20T10:21:04Z</time>
      </trkpt>
      <trkpt lat="43.35705" lon="2.71524">
        <ele>299.495</ele>
        <time>2011-03-20T10:21:23Z</time>
      </trkpt>
      <trkpt lat="43.35698" lon="2.71483">
        <ele>302.08</ele>
        <time>2011-03-20T10:21:47Z</time>
      </trkpt>
      <trkpt lat="43.357" lon="2.71435">
        <ele>303.842</ele>
        <time>2011-03-20T10:22:14Z</time>
      </trkpt>
      <trkpt lat="43.357" lon="2.71417">
        <ele>305.001</ele>
        <time>2011-03-20T10:22:26Z</time>
      </trkpt>
      <trkpt lat="43.35701" lon="2.71385">
        <ele>305.787</ele>
        <time>2011-03-20T10:22:44Z</time>
      </trkpt>
      <trkpt lat="43.35702" lon="2.71366">
        <ele>306.293</ele>
        <time>2011-03-20T10:22:56Z</time>
      </trkpt>
      <trkpt lat="43.35703" lon="2.7135">
        <ele>306.294</ele>
        <time>2011-03-20T10:23:04Z</time>
      </trkpt>
      <trkpt lat="43.357" lon="2.71343">
        <ele>306.161</ele>
        <time>2011-03-20T10:23:08Z</time>
      </trkpt>
      <trkpt lat="43.357" lon="2.71338">
        <ele>306.185</ele>
        <time>2011-03-20T10:23:11Z</time>
      </trkpt>
      <trkpt lat="43.35699" lon="2.71332">
        <ele>305.768</ele>
        <time>2011-03-20T10:23:14Z</time>
      </trkpt>
      <trkpt lat="43.35697" lon="2.71322">
        <ele>304.803</ele>
        <time>2011-03-20T10:23:20Z</time>
      </trkpt>
      <trkpt lat="43.35676" lon="2.71315">
        <ele>301.512</ele>
        <time>2011-03-20T10:23:36Z</time>
      </trkpt>
      <trkpt lat="43.35646" lon="2.71315">
        <ele>298.37</ele>
        <time>2011-03-20T10:23:58Z</time>
      </trkpt>
      <trkpt lat="43.35611" lon="2.71327">
        <ele>295.56</ele>
        <time>2011-03-20T10:24:24Z</time>
      </trkpt>
      <trkpt lat="43.35601" lon="2.71332">
        <ele>294.358</ele>
        <time>2011-03-20T10:24:32Z</time>
      </trkpt>
      <trkpt lat="43.35582" lon="2.71347">
        <ele>292.506</ele>
        <time>2011-03-20T10:24:48Z</time>
      </trkpt>
      <trkpt lat="43.35563" lon="2.71371">
        <ele>289.478</ele>
        <time>2011-03-20T10:25:08Z</time>
      </trkpt>
      <trkpt lat="43.35534" lon="2.71392">
        <ele>286.253</ele>
        <time>2011-03-20T10:25:32Z</time>
      </trkpt>
      <trkpt lat="43.3551" lon="2.71409">
        <ele>283.733</ele>
        <time>2011-03-20T10:25:53Z</time>
      </trkpt>
      <trkpt lat="43.35482" lon="2.7142">
        <ele>280.711</ele>
        <time>2011-03-20T10:26:15Z</time>
      </trkpt>
      <trkpt lat="43.35457" lon="2.71424">
        <ele>277.54</ele>
        <time>2011-03-20T10:26:34Z</time>
      </trkpt>
      <trkpt lat="43.35431" lon="2.71429">
        <ele>275.331</ele>
        <time>2011-03-20T10:26:51Z</time>
      </trkpt>
      <trkpt lat="43.35407" lon="2.71436">
        <ele>272.645</ele>
        <time>2011-03-20T10:27:10Z</time>
      </trkpt>
      <trkpt lat="43.35389" lon="2.71432">
        <ele>270.33</ele>
        <time>2011-03-20T10:27:26Z</time>
      </trkpt>
      <trkpt lat="43.35383" lon="2.7139">
        <ele>270.577</ele>
        <time>2011-03-20T10:27:50Z</time>
      </trkpt>
      <trkpt lat="43.35378" lon="2.71368">
        <ele>270.335</ele>
        <time>2011-03-20T10:28:02Z</time>
      </trkpt>
      <trkpt lat="43.35377" lon="2.71365">
        <ele>270.275</ele>
        <time>2011-03-20T10:28:04Z</time>
      </trkpt>
      <trkpt lat="43.35376" lon="2.71355">
        <ele>270.588</ele>
        <time>2011-03-20T10:28:10Z</time>
      </trkpt>
      <trkpt lat="43.35372" lon="2.71333">
        <ele>269.667</ele>
        <time>2011-03-20T10:28:22Z</time>
      </trkpt>
      <trkpt lat="43.35371" lon="2.7133">
        <ele>268.831</ele>
        <time>2011-03-20T10:28:25Z</time>
      </trkpt>
      <trkpt lat="43.3537" lon="2.71326">
        <ele>268.707</ele>
        <time>2011-03-20T10:28:27Z</time>
      </trkpt>
      <trkpt lat="43.35367" lon="2.71318">
        <ele>269.694</ele>
        <time>2011-03-20T10:28:32Z</time>
      </trkpt>
      <trkpt lat="43.35362" lon="2.71305">
        <ele>270.547</ele>
        <time>2011-03-20T10:28:40Z</time>
      </trkpt>
      <trkpt lat="43.35348" lon="2.7127">
        <ele>271.192</ele>
        <time>2011-03-20T10:29:01Z</time>
      </trkpt>
      <trkpt lat="43.35334" lon="2.71254">
        <ele>269.83</ele>
        <time>2011-03-20T10:29:14Z</time>
      </trkpt>
      <trkpt lat="43.35332" lon="2.71247">
        <ele>269.468</ele>
        <time>2011-03-20T10:29:18Z</time>
      </trkpt>
      <trkpt lat="43.35321" lon="2.71215">
        <ele>268.998</ele>
        <time>2011-03-20T10:29:38Z</time>
      </trkpt>
      <trkpt lat="43.3531" lon="2.71176">
        <ele>266.655</ele>
        <time>2011-03-20T10:29:59Z</time>
      </trkpt>
      <trkpt lat="43.35288" lon="2.71129">
        <ele>263.629</ele>
        <time>2011-03-20T10:30:26Z</time>
      </trkpt>
      <trkpt lat="43.35283" lon="2.7109">
        <ele>262.603</ele>
        <time>2011-03-20T10:30:49Z</time>
      </trkpt>
      <trkpt lat="43.35296" lon="2.71078">
        <ele>264.402</ele>
        <time>2011-03-20T10:31:02Z</time>
      </trkpt>
      <trkpt lat="43.35293" lon="2.71038">
        <ele>262.47</ele>
        <time>2011-03-20T10:31:22Z</time>
      </trkpt>
      <trkpt lat="43.35264" lon="2.71004">
        <ele>261.401</ele>
        <time>2011-03-20T10:31:47Z</time>
      </trkpt>
      <trkpt lat="43.3524" lon="2.70969">
        <ele>260.288</ele>
        <time>2011-03-20T10:32:12Z</time>
      </trkpt>
      <trkpt lat="43.35236" lon="2.70935">
        <ele>261.14</ele>
        <time>2011-03-20T10:32:29Z</time>
      </trkpt>
      <trkpt lat="43.35234" lon="2.7092">
        <ele>261.158</ele>
        <time>2011-03-20T10:32:37Z</time>
      </trkpt>
      <trkpt lat="43.35228" lon="2.70911">
        <ele>260.746</ele>
        <time>2011-03-20T10:32:44Z</time>
      </trkpt>
      <trkpt lat="43.35204" lon="2.70889">
        <ele>259.332</ele>
        <time>2011-03-20T10:33:03Z</time>
      </trkpt>
      <trkpt lat="43.3519" lon="2.70876">
        <ele>256.298</ele>
        <time>2011-03-20T10:33:14Z</time>
      </trkpt>
      <trkpt lat="43.35167" lon="2.7085">
        <ele>253.237</ele>
        <time>2011-03-20T10:33:35Z</time>
      </trkpt>
      <trkpt lat="43.35138" lon="2.70833">
        <ele>250.203</ele>
        <time>2011-03-20T10:33:57Z</time>
      </trkpt>
      <trkpt lat="43.35109" lon="2.70827">
        <ele>246.971</ele>
        <time>2011-03-20T10:34:18Z</time>
      </trkpt>
      <trkpt lat="43.35079" lon="2.70807">
        <ele>246.506</ele>
        <time>2011-03-20T10:34:41Z</time>
      </trkpt>
      <trkpt lat="43.35054" lon="2.70793">
        <ele>245.594</ele>
        <time>2011-03-20T10:35:01Z</time>
      </trkpt>
      <trkpt lat="43.3502" lon="2.70802">
        <ele>242.809</ele>
        <time>2011-03-20T10:35:25Z</time>
      </trkpt>
      <trkpt lat="43.34993" lon="2.70811">
        <ele>240.972</ele>
        <time>2011-03-20T10:35:44Z</time>
      </trkpt>
      <trkpt lat="43.34985" lon="2.70808">
        <ele>240.272</ele>
        <time>2011-03-20T10:35:51Z</time>
      </trkpt>
      <trkpt lat="43.34983" lon="2.70799">
        <ele>238.29</ele>
        <time>2011-03-20T10:36:00Z</time>
      </trkpt>
      <trkpt lat="43.3499" lon="2.70788">
        <ele>234.976</ele>
        <time>2011-03-20T10:36:14Z</time>
      </trkpt>
      <trkpt lat="43.34995" lon="2.70774">
        <ele>231.847</ele>
        <time>2011-03-20T10:36:28Z</time>
      </trkpt>
      <trkpt lat="43.35" lon="2.70763">
        <ele>230.089</ele>
        <time>2011-03-20T10:36:38Z</time>
      </trkpt>
      <trkpt lat="43.35003" lon="2.70756">
        <ele>229.17</ele>
        <time>2011-03-20T10:36:50Z</time>
      </trkpt>
      <trkpt lat="43.3499" lon="2.70767">
        <ele>226.008</ele>
        <time>2011-03-20T10:37:04Z</time>
      </trkpt>
      <trkpt lat="43.34988" lon="2.70767">
        <ele>225.605</ele>
        <time>2011-03-20T10:37:06Z</time>
      </trkpt>
      <trkpt lat="43.34986" lon="2.70766">
        <ele>224.214</ele>
        <time>2011-03-20T10:37:09Z</time>
      </trkpt>
      <trkpt lat="43.3498" lon="2.70769">
        <ele>221.555</ele>
        <time>2011-03-20T10:37:22Z</time>
      </trkpt>
      <trkpt lat="43.34979" lon="2.70771">
        <ele>221.062</ele>
        <time>2011-03-20T10:37:24Z</time>
      </trkpt>
      <trkpt lat="43.34979" lon="2.70763">
        <ele>219.083</ele>
        <time>2011-03-20T10:37:36Z</time>
      </trkpt>
      <trkpt lat="43.34982" lon="2.70756">
        <ele>218.009</ele>
        <time>2011-03-20T10:37:42Z</time>
      </trkpt>
      <trkpt lat="43.34982" lon="2.70754">
        <ele>217.184</ele>
        <time>2011-03-20T10:37:45Z</time>
      </trkpt>
      <trkpt lat="43.3499" lon="2.70742">
        <ele>215.142</ele>
        <time>2011-03-20T10:37:57Z</time>
      </trkpt>
      <trkpt lat="43.34997" lon="2.70734">
        <ele>211.649</ele>
        <time>2011-03-20T10:38:12Z</time>
      </trkpt>
      <trkpt lat="43.35" lon="2.70728">
        <ele>210.04</ele>
        <time>2011-03-20T10:38:23Z</time>
      </trkpt>
      <trkpt lat="43.35007" lon="2.70718">
        <ele>207.821</ele>
        <time>2011-03-20T10:38:37Z</time>
      </trkpt>
      <trkpt lat="43.35016" lon="2.70702">
        <ele>205.405</ele>
        <time>2011-03-20T10:38:52Z</time>
      </trkpt>
      <trkpt lat="43.35024" lon="2.70686">
        <ele>202.222</ele>
        <time>2011-03-20T10:39:08Z</time>
      </trkpt>
      <trkpt lat="43.35029" lon="2.70674">
        <ele>199.192</ele>
        <time>2011-03-20T10:39:20Z</time>
      </trkpt>
      <trkpt lat="43.3502" lon="2.70674">
        <ele>196.108</ele>
        <time>2011-03-20T10:39:32Z</time>
      </trkpt>
      <trkpt lat="43.35019" lon="2.70674">
        <ele>195.804</ele>
        <time>2011-03-20T10:39:38Z</time>
      </trkpt>
      <trkpt lat="43.35012" lon="2.70676">
        <ele>194.283</ele>
        <time>2011-03-20T10:39:44Z</time>
      </trkpt>
      <trkpt lat="43.35009" lon="2.70664">
        <ele>190.306</ele>
        <time>2011-03-20T10:39:58Z</time>
      </trkpt>
      <trkpt lat="43.3502" lon="2.70656">
        <ele>188.55</ele>
        <time>2011-03-20T10:40:15Z</time>
      </trkpt>
      <trkpt lat="43.35026" lon="2.70649">
        <ele>188.036</ele>
        <time>2011-03-20T10:40:30Z</time>
      </trkpt>
      <trkpt lat="43.35023" lon="2.70643">
        <ele>187.004</ele>
        <time>2011-03-20T10:40:50Z</time>
      </trkpt>
      <trkpt lat="43.35025" lon="2.70646">
        <ele>186.969</ele>
        <time>2011-03-20T10:41:24Z</time>
      </trkpt>
      <trkpt lat="43.3502" lon="2.70649">
        <ele>187.8</ele>
        <time>2011-03-20T10:43:56Z</time>
      </trkpt>
      <trkpt lat="43.35021" lon="2.70644">
        <ele>187.734</ele>
        <time>2011-03-20T10:45:27Z</time>
      </trkpt>
      <trkpt lat="43.35021" lon="2.70646">
        <ele>187.05</ele>
        <time>2011-03-20T10:46:40Z</time>
      </trkpt>
      <trkpt lat="43.35021" lon="2.70645">
        <ele>188.477</ele>
        <time>2011-03-20T10:47:06Z</time>
      </trkpt>
      <trkpt lat="43.35021" lon="2.70643">
        <ele>188.454</ele>
        <time>2011-03-20T10:47:59Z</time>
      </trkpt>
      <trkpt lat="43.35024" lon="2.70635">
        <ele>188.378</ele>
        <time>2011-03-20T10:48:22Z</time>
      </trkpt>
      <trkpt lat="43.35025" lon="2.70627">
        <ele>188.318</ele>
        <time>2011-03-20T10:48:48Z</time>
      </trkpt>
      <trkpt lat="43.35021" lon="2.70624">
        <ele>190.054</ele>
        <time>2011-03-20T10:49:41Z</time>
      </trkpt>
      <trkpt lat="43.35023" lon="2.70623">
        <ele>190.561</ele>
        <time>2011-03-20T10:49:55Z</time>
      </trkpt>
      <trkpt lat="43.35023" lon="2.70614">
        <ele>193.118</ele>
        <time>2011-03-20T10:55:49Z</time>
      </trkpt>
      <trkpt lat="43.35025" lon="2.7061">
        <ele>194.953</ele>
        <time>2011-03-20T10:56:01Z</time>
      </trkpt>
      <trkpt lat="43.35028" lon="2.70604">
        <ele>195.159</ele>
        <time>2011-03-20T10:56:27Z</time>
      </trkpt>
      <trkpt lat="43.35029" lon="2.70592">
        <ele>198.715</ele>
        <time>2011-03-20T10:56:40Z</time>
      </trkpt>
      <trkpt lat="43.35019" lon="2.70593">
        <ele>201.516</ele>
        <time>2011-03-20T10:56:55Z</time>
      </trkpt>
      <trkpt lat="43.35007" lon="2.70591">
        <ele>204.548</ele>
        <time>2011-03-20T10:57:08Z</time>
      </trkpt>
      <trkpt lat="43.35007" lon="2.70591">
        <ele>206.013</ele>
        <time>2011-03-20T10:57:20Z</time>
      </trkpt>
      <trkpt lat="43.35004" lon="2.70588">
        <ele>209.032</ele>
        <time>2011-03-20T10:57:36Z</time>
      </trkpt>
      <trkpt lat="43.34994" lon="2.7059">
        <ele>210.96</ele>
        <time>2011-03-20T10:57:48Z</time>
      </trkpt>
      <trkpt lat="43.34986" lon="2.70598">
        <ele>212.878</ele>
        <time>2011-03-20T10:58:02Z</time>
      </trkpt>
      <trkpt lat="43.34979" lon="2.70596">
        <ele>215.502</ele>
        <time>2011-03-20T10:58:17Z</time>
      </trkpt>
      <trkpt lat="43.34988" lon="2.70585">
        <ele>217.434</ele>
        <time>2011-03-20T10:58:35Z</time>
      </trkpt>
      <trkpt lat="43.34993" lon="2.70575">
        <ele>219.095</ele>
        <time>2011-03-20T10:58:50Z</time>
      </trkpt>
      <trkpt lat="43.35003" lon="2.7056">
        <ele>219.574</ele>
        <time>2011-03-20T10:59:37Z</time>
      </trkpt>
      <trkpt lat="43.34997" lon="2.70558">
        <ele>221.184</ele>
        <time>2011-03-20T10:59:51Z</time>
      </trkpt>
      <trkpt lat="43.34983" lon="2.70573">
        <ele>223.163</ele>
        <time>2011-03-20T11:00:11Z</time>
      </trkpt>
      <trkpt lat="43.34982" lon="2.70576">
        <ele>223.587</ele>
        <time>2011-03-20T11:00:15Z</time>
      </trkpt>
      <trkpt lat="43.34978" lon="2.70577">
        <ele>224.177</ele>
        <time>2011-03-20T11:00:19Z</time>
      </trkpt>
      <trkpt lat="43.34965" lon="2.7058">
        <ele>227.142</ele>
        <time>2011-03-20T11:00:33Z</time>
      </trkpt>
      <trkpt lat="43.34967" lon="2.70589">
        <ele>229.771</ele>
        <time>2011-03-20T11:00:47Z</time>
      </trkpt>
      <trkpt lat="43.34963" lon="2.70584">
        <ele>230.732</ele>
        <time>2011-03-20T11:01:02Z</time>
      </trkpt>
      <trkpt lat="43.34956" lon="2.70578">
        <ele>232.773</ele>
        <time>2011-03-20T11:01:14Z</time>
      </trkpt>
      <trkpt lat="43.34949" lon="2.70582">
        <ele>234.054</ele>
        <time>2011-03-20T11:01:30Z</time>
      </trkpt>
      <trkpt lat="43.34959" lon="2.70594">
        <ele>235.333</ele>
        <time>2011-03-20T11:01:47Z</time>
      </trkpt>
      <trkpt lat="43.34954" lon="2.70607">
        <ele>235.192</ele>
        <time>2011-03-20T11:01:58Z</time>
      </trkpt>
      <trkpt lat="43.34942" lon="2.70603">
        <ele>237.902</ele>
        <time>2011-03-20T11:02:14Z</time>
      </trkpt>
      <trkpt lat="43.34936" lon="2.70593">
        <ele>240.404</ele>
        <time>2011-03-20T11:02:30Z</time>
      </trkpt>
      <trkpt lat="43.34927" lon="2.70586">
        <ele>242.23</ele>
        <time>2011-03-20T11:02:43Z</time>
      </trkpt>
      <trkpt lat="43.34927" lon="2.70584">
        <ele>243.433</ele>
        <time>2011-03-20T11:02:49Z</time>
      </trkpt>
      <trkpt lat="43.34922" lon="2.70597">
        <ele>243.955</ele>
        <time>2011-03-20T11:03:07Z</time>
      </trkpt>
      <trkpt lat="43.34917" lon="2.706">
        <ele>244.067</ele>
        <time>2011-03-20T11:03:22Z</time>
      </trkpt>
      <trkpt lat="43.34916" lon="2.70601">
        <ele>243.904</ele>
        <time>2011-03-20T11:03:34Z</time>
      </trkpt>
      <trkpt lat="43.34891" lon="2.70612">
        <ele>243.441</ele>
        <time>2011-03-20T11:03:54Z</time>
      </trkpt>
      <trkpt lat="43.34863" lon="2.7062">
        <ele>241.691</ele>
        <time>2011-03-20T11:04:15Z</time>
      </trkpt>
      <trkpt lat="43.34836" lon="2.70634">
        <ele>241.777</ele>
        <time>2011-03-20T11:04:36Z</time>
      </trkpt>
      <trkpt lat="43.34789" lon="2.7065">
        <ele>239.574</ele>
        <time>2011-03-20T11:05:10Z</time>
      </trkpt>
      <trkpt lat="43.34781" lon="2.70651">
        <ele>239.161</ele>
        <time>2011-03-20T11:05:16Z</time>
      </trkpt>
      <trkpt lat="43.34778" lon="2.70654">
        <ele>238.749</ele>
        <time>2011-03-20T11:05:19Z</time>
      </trkpt>
      <trkpt lat="43.34757" lon="2.70654">
        <ele>235.254</ele>
        <time>2011-03-20T11:05:34Z</time>
      </trkpt>
      <trkpt lat="43.34727" lon="2.7065">
        <ele>232.596</ele>
        <time>2011-03-20T11:05:57Z</time>
      </trkpt>
      <trkpt lat="43.34695" lon="2.70647">
        <ele>230.318</ele>
        <time>2011-03-20T11:06:21Z</time>
      </trkpt>
      <trkpt lat="43.3467" lon="2.70647">
        <ele>229.095</ele>
        <time>2011-03-20T11:06:40Z</time>
      </trkpt>
      <trkpt lat="43.34639" lon="2.70645">
        <ele>229.004</ele>
        <time>2011-03-20T11:07:02Z</time>
      </trkpt>
      <trkpt lat="43.3463" lon="2.70644">
        <ele>228.913</ele>
        <time>2011-03-20T11:07:09Z</time>
      </trkpt>
      <trkpt lat="43.34627" lon="2.70645">
        <ele>229.089</ele>
        <time>2011-03-20T11:07:30Z</time>
      </trkpt>
      <trkpt lat="43.34624" lon="2.70645">
        <ele>229.444</ele>
        <time>2011-03-20T11:07:50Z</time>
      </trkpt>
      <trkpt lat="43.34624" lon="2.70643">
        <ele>229.905</ele>
        <time>2011-03-20T11:08:14Z</time>
      </trkpt>
      <trkpt lat="43.34621" lon="2.70646">
        <ele>229.515</ele>
        <time>2011-03-20T11:08:32Z</time>
      </trkpt>
      <trkpt lat="43.34617" lon="2.70644">
        <ele>230.375</ele>
        <time>2011-03-20T11:08:49Z</time>
      </trkpt>
      <trkpt lat="43.34613" lon="2.70652">
        <ele>232.104</ele>
        <time>2011-03-20T11:09:16Z</time>
      </trkpt>
      <trkpt lat="43.34615" lon="2.70653">
        <ele>232.269</ele>
        <time>2011-03-20T11:09:22Z</time>
      </trkpt>
      <trkpt lat="43.34624" lon="2.70666">
        <ele>232.613</ele>
        <time>2011-03-20T11:09:33Z</time>
      </trkpt>
      <trkpt lat="43.34626" lon="2.70669">
        <ele>231.884</ele>
        <time>2011-03-20T11:09:36Z</time>
      </trkpt>
      <trkpt lat="43.34628" lon="2.70675">
        <ele>231.4</ele>
        <time>2011-03-20T11:09:39Z</time>
      </trkpt>
      <trkpt lat="43.34652" lon="2.70713">
        <ele>230.754</ele>
        <time>2011-03-20T11:10:09Z</time>
      </trkpt>
      <trkpt lat="43.34675" lon="2.7075">
        <ele>228.331</ele>
        <time>2011-03-20T11:10:37Z</time>
      </trkpt>
      <trkpt lat="43.34683" lon="2.70787">
        <ele>227.488</ele>
        <time>2011-03-20T11:10:57Z</time>
      </trkpt>
      <trkpt lat="43.34672" lon="2.70845">
        <ele>225.068</ele>
        <time>2011-03-20T11:11:27Z</time>
      </trkpt>
      <trkpt lat="43.34656" lon="2.70884">
        <ele>222.006</ele>
        <time>2011-03-20T11:11:50Z</time>
      </trkpt>
      <trkpt lat="43.34631" lon="2.70912">
        <ele>219.971</ele>
        <time>2011-03-20T11:12:11Z</time>
      </trkpt>
      <trkpt lat="43.34606" lon="2.7095">
        <ele>217.76</ele>
        <time>2011-03-20T11:12:36Z</time>
      </trkpt>
      <trkpt lat="43.34587" lon="2.70998">
        <ele>216.375</ele>
        <time>2011-03-20T11:13:02Z</time>
      </trkpt>
      <trkpt lat="43.34578" lon="2.71034">
        <ele>214.745</ele>
        <time>2011-03-20T11:13:22Z</time>
      </trkpt>
      <trkpt lat="43.34572" lon="2.71084">
        <ele>213.065</ele>
        <time>2011-03-20T11:13:45Z</time>
      </trkpt>
      <trkpt lat="43.34564" lon="2.71122">
        <ele>210.456</ele>
        <time>2011-03-20T11:14:03Z</time>
      </trkpt>
      <trkpt lat="43.3456" lon="2.71153">
        <ele>209.579</ele>
        <time>2011-03-20T11:14:15Z</time>
      </trkpt>
      <trkpt lat="43.3456" lon="2.71161">
        <ele>210.584</ele>
        <time>2011-03-20T11:14:17Z</time>
      </trkpt>
      <trkpt lat="43.3456" lon="2.71167">
        <ele>206.19</ele>
        <time>2011-03-20T11:14:19Z</time>
      </trkpt>
      <trkpt lat="43.3456" lon="2.7117">
        <ele>208.434</ele>
        <time>2011-03-20T11:14:20Z</time>
      </trkpt>
      <trkpt lat="43.34562" lon="2.712">
        <ele>207.159</ele>
        <time>2011-03-20T11:14:32Z</time>
      </trkpt>
      <trkpt lat="43.34563" lon="2.71229">
        <ele>206.374</ele>
        <time>2011-03-20T11:14:46Z</time>
      </trkpt>
      <trkpt lat="43.34562" lon="2.71235">
        <ele>206.696</ele>
        <time>2011-03-20T11:14:49Z</time>
      </trkpt>
      <trkpt lat="43.34574" lon="2.71275">
        <ele>205.198</ele>
        <time>2011-03-20T11:15:09Z</time>
      </trkpt>
      <trkpt lat="43.34567" lon="2.71321">
        <ele>203.89</ele>
        <time>2011-03-20T11:15:32Z</time>
      </trkpt>
      <trkpt lat="43.34549" lon="2.71375">
        <ele>202.262</ele>
        <time>2011-03-20T11:16:00Z</time>
      </trkpt>
      <trkpt lat="43.34545" lon="2.7141">
        <ele>201.864</ele>
        <time>2011-03-20T11:16:18Z</time>
      </trkpt>
      <trkpt lat="43.34568" lon="2.71422">
        <ele>203.467</ele>
        <time>2011-03-20T11:16:41Z</time>
      </trkpt>
      <trkpt lat="43.3461" lon="2.71425">
        <ele>205.171</ele>
        <time>2011-03-20T11:17:08Z</time>
      </trkpt>
      <trkpt lat="43.34642" lon="2.71441">
        <ele>207.034</ele>
        <time>2011-03-20T11:17:31Z</time>
      </trkpt>
      <trkpt lat="43.34675" lon="2.7146">
        <ele>207.62</ele>
        <time>2011-03-20T11:17:57Z</time>
      </trkpt>
      <trkpt lat="43.34689" lon="2.71466">
        <ele>209.017</ele>
        <time>2011-03-20T11:18:11Z</time>
      </trkpt>
      <trkpt lat="43.34718" lon="2.71494">
        <ele>208.689</ele>
        <time>2011-03-20T11:18:32Z</time>
      </trkpt>
      <trkpt lat="43.34718" lon="2.71496">
        <ele>208.009</ele>
        <time>2011-03-20T11:18:44Z</time>
      </trkpt>
      <trkpt lat="43.34729" lon="2.71512">
        <ele>209.07</ele>
        <time>2011-03-20T11:18:58Z</time>
      </trkpt>
      <trkpt lat="43.34733" lon="2.71517">
        <ele>209.538</ele>
        <time>2011-03-20T11:19:02Z</time>
      </trkpt>
      <trkpt lat="43.3474" lon="2.71529">
        <ele>209.727</ele>
        <time>2011-03-20T11:19:10Z</time>
      </trkpt>
      <trkpt lat="43.34744" lon="2.7154">
        <ele>209.956</ele>
        <time>2011-03-20T11:19:16Z</time>
      </trkpt>
      <trkpt lat="43.34747" lon="2.71546">
        <ele>209.691</ele>
        <time>2011-03-20T11:19:20Z</time>
      </trkpt>
      <trkpt lat="43.34767" lon="2.7157">
        <ele>210.34</ele>
        <time>2011-03-20T11:19:37Z</time>
      </trkpt>
      <trkpt lat="43.34799" lon="2.71595">
        <ele>211.706</ele>
        <time>2011-03-20T11:20:01Z</time>
      </trkpt>
      <trkpt lat="43.34838" lon="2.71613">
        <ele>211.832</ele>
        <time>2011-03-20T11:20:29Z</time>
      </trkpt>
      <trkpt lat="43.34852" lon="2.71623">
        <ele>212.668</ele>
        <time>2011-03-20T11:20:41Z</time>
      </trkpt>
      <trkpt lat="43.34854" lon="2.7165">
        <ele>213.186</ele>
        <time>2011-03-20T11:20:59Z</time>
      </trkpt>
      <trkpt lat="43.34853" lon="2.71652">
        <ele>213.162</ele>
        <time>2011-03-20T11:21:00Z</time>
      </trkpt>
      <trkpt lat="43.34851" lon="2.71659">
        <ele>213.042</ele>
        <time>2011-03-20T11:21:04Z</time>
      </trkpt>
      <trkpt lat="43.34836" lon="2.71697">
        <ele>212.197</ele>
        <time>2011-03-20T11:21:25Z</time>
      </trkpt>
      <trkpt lat="43.3481" lon="2.71758">
        <ele>209.992</ele>
        <time>2011-03-20T11:21:59Z</time>
      </trkpt>
      <trkpt lat="43.34795" lon="2.71816">
        <ele>208.66</ele>
        <time>2011-03-20T11:22:30Z</time>
      </trkpt>
      <trkpt lat="43.34795" lon="2.71829">
        <ele>208.579</ele>
        <time>2011-03-20T11:22:38Z</time>
      </trkpt>
      <trkpt lat="43.34797" lon="2.71834">
        <ele>208.659</ele>
        <time>2011-03-20T11:22:41Z</time>
      </trkpt>
      <trkpt lat="43.34797" lon="2.71838">
        <ele>208.384</ele>
        <time>2011-03-20T11:22:44Z</time>
      </trkpt>
      <trkpt lat="43.34804" lon="2.71853">
        <ele>209.006</ele>
        <time>2011-03-20T11:22:53Z</time>
      </trkpt>
      <trkpt lat="43.34813" lon="2.71869">
        <ele>209.464</ele>
        <time>2011-03-20T11:23:03Z</time>
      </trkpt>
      <trkpt lat="43.34815" lon="2.71873">
        <ele>209.243</ele>
        <time>2011-03-20T11:23:05Z</time>
      </trkpt>
      <trkpt lat="43.34818" lon="2.71881">
        <ele>209.853</ele>
        <time>2011-03-20T11:23:10Z</time>
      </trkpt>
      <trkpt lat="43.34818" lon="2.71887">
        <ele>209.668</ele>
        <time>2011-03-20T11:23:14Z</time>
      </trkpt>
      <trkpt lat="43.34827" lon="2.71915">
        <ele>209.036</ele>
        <time>2011-03-20T11:23:29Z</time>
      </trkpt>
      <trkpt lat="43.34829" lon="2.71922">
        <ele>208.843</ele>
        <time>2011-03-20T11:23:33Z</time>
      </trkpt>
      <trkpt lat="43.34834" lon="2.71936">
        <ele>208.461</ele>
        <time>2011-03-20T11:23:40Z</time>
      </trkpt>
      <trkpt lat="43.3485" lon="2.71959">
        <ele>209.088</ele>
        <time>2011-03-20T11:23:48Z</time>
      </trkpt>
      <trkpt lat="43.34869" lon="2.7198">
        <ele>209.163</ele>
        <time>2011-03-20T11:24:04Z</time>
      </trkpt>
      <trkpt lat="43.34886" lon="2.71994">
        <ele>209.502</ele>
        <time>2011-03-20T11:24:17Z</time>
      </trkpt>
      <trkpt lat="43.34905" lon="2.72008">
        <ele>210.437</ele>
        <time>2011-03-20T11:24:31Z</time>
      </trkpt>
      <trkpt lat="43.34919" lon="2.72035">
        <ele>211.257</ele>
        <time>2011-03-20T11:24:50Z</time>
      </trkpt>
      <trkpt lat="43.3492" lon="2.72037">
        <ele>211.422</ele>
        <time>2011-03-20T11:24:51Z</time>
      </trkpt>
      <trkpt lat="43.34924" lon="2.72049">
        <ele>211.328</ele>
        <time>2011-03-20T11:24:58Z</time>
      </trkpt>
      <trkpt lat="43.34925" lon="2.72055">
        <ele>211.758</ele>
        <time>2011-03-20T11:25:01Z</time>
      </trkpt>
      <trkpt lat="43.34927" lon="2.72064">
        <ele>211.88</ele>
        <time>2011-03-20T11:25:06Z</time>
      </trkpt>
      <trkpt lat="43.34929" lon="2.72078">
        <ele>211.707</ele>
        <time>2011-03-20T11:25:14Z</time>
      </trkpt>
      <trkpt lat="43.34927" lon="2.72087">
        <ele>211.829</ele>
        <time>2011-03-20T11:25:19Z</time>
      </trkpt>
      <trkpt lat="43.34924" lon="2.72098">
        <ele>212.049</ele>
        <time>2011-03-20T11:25:25Z</time>
      </trkpt>
      <trkpt lat="43.34919" lon="2.72129">
        <ele>211.24</ele>
        <time>2011-03-20T11:25:40Z</time>
      </trkpt>
      <trkpt lat="43.34917" lon="2.72133">
        <ele>211.174</ele>
        <time>2011-03-20T11:25:42Z</time>
      </trkpt>
      <trkpt lat="43.34914" lon="2.72147">
        <ele>210.436</ele>
        <time>2011-03-20T11:25:49Z</time>
      </trkpt>
      <trkpt lat="43.34911" lon="2.72176">
        <ele>210.132</ele>
        <time>2011-03-20T11:26:04Z</time>
      </trkpt>
      <trkpt lat="43.34911" lon="2.72181">
        <ele>209.922</ele>
        <time>2011-03-20T11:26:06Z</time>
      </trkpt>
      <trkpt lat="43.34915" lon="2.72193">
        <ele>209.407</ele>
        <time>2011-03-20T11:26:13Z</time>
      </trkpt>
      <trkpt lat="43.34917" lon="2.72199">
        <ele>209.297</ele>
        <time>2011-03-20T11:26:16Z</time>
      </trkpt>
      <trkpt lat="43.3492" lon="2.72206">
        <ele>209.342</ele>
        <time>2011-03-20T11:26:20Z</time>
      </trkpt>
      <trkpt lat="43.34921" lon="2.72209">
        <ele>208.979</ele>
        <time>2011-03-20T11:26:22Z</time>
      </trkpt>
      <trkpt lat="43.34934" lon="2.72235">
        <ele>208.488</ele>
        <time>2011-03-20T11:26:38Z</time>
      </trkpt>
      <trkpt lat="43.34942" lon="2.72258">
        <ele>207.498</ele>
        <time>2011-03-20T11:26:50Z</time>
      </trkpt>
      <trkpt lat="43.3495" lon="2.7231">
        <ele>204.457</ele>
        <time>2011-03-20T11:27:17Z</time>
      </trkpt>
      <trkpt lat="43.34941" lon="2.72365">
        <ele>201.438</ele>
        <time>2011-03-20T11:27:45Z</time>
      </trkpt>
      <trkpt lat="43.34929" lon="2.72413">
        <ele>199.307</ele>
        <time>2011-03-20T11:28:10Z</time>
      </trkpt>
      <trkpt lat="43.34921" lon="2.72433">
        <ele>198.296</ele>
        <time>2011-03-20T11:28:26Z</time>
      </trkpt>
      <trkpt lat="43.34904" lon="2.72472">
        <ele>196.044</ele>
        <time>2011-03-20T11:28:50Z</time>
      </trkpt>
      <trkpt lat="43.34882" lon="2.72513">
        <ele>193.146</ele>
        <time>2011-03-20T11:29:15Z</time>
      </trkpt>
      <trkpt lat="43.34864" lon="2.72555">
        <ele>190.258</ele>
        <time>2011-03-20T11:29:39Z</time>
      </trkpt>
      <trkpt lat="43.34834" lon="2.72573">
        <ele>187.862</ele>
        <time>2011-03-20T11:30:01Z</time>
      </trkpt>
      <trkpt lat="43.34802" lon="2.72596">
        <ele>186.062</ele>
        <time>2011-03-20T11:30:26Z</time>
      </trkpt>
      <trkpt lat="43.34791" lon="2.72649">
        <ele>185.136</ele>
        <time>2011-03-20T11:30:55Z</time>
      </trkpt>
      <trkpt lat="43.34794" lon="2.72666">
        <ele>185.324</ele>
        <time>2011-03-20T11:31:05Z</time>
      </trkpt>
      <trkpt lat="43.34799" lon="2.72694">
        <ele>185.568</ele>
        <time>2011-03-20T11:31:20Z</time>
      </trkpt>
      <trkpt lat="43.34802" lon="2.72721">
        <ele>185.115</ele>
        <time>2011-03-20T11:31:35Z</time>
      </trkpt>
      <trkpt lat="43.34802" lon="2.72733">
        <ele>184.522</ele>
        <time>2011-03-20T11:31:41Z</time>
      </trkpt>
      <trkpt lat="43.34802" lon="2.72755">
        <ele>183.81</ele>
        <time>2011-03-20T11:31:53Z</time>
      </trkpt>
      <trkpt lat="43.34803" lon="2.72763">
        <ele>183.387</ele>
        <time>2011-03-20T11:31:57Z</time>
      </trkpt>
      <trkpt lat="43.34815" lon="2.72807">
        <ele>182.42</ele>
        <time>2011-03-20T11:32:20Z</time>
      </trkpt>
      <trkpt lat="43.34816" lon="2.72814">
        <ele>182.58</ele>
        <time>2011-03-20T11:32:24Z</time>
      </trkpt>
      <trkpt lat="43.34831" lon="2.72845">
        <ele>182.713</ele>
        <time>2011-03-20T11:32:41Z</time>
      </trkpt>
      <trkpt lat="43.34849" lon="2.7287">
        <ele>183.086</ele>
        <time>2011-03-20T11:32:58Z</time>
      </trkpt>
      <trkpt lat="43.34871" lon="2.72892">
        <ele>183.888</ele>
        <time>2011-03-20T11:33:16Z</time>
      </trkpt>
      <trkpt lat="43.34892" lon="2.72906">
        <ele>185.268</ele>
        <time>2011-03-20T11:33:33Z</time>
      </trkpt>
      <trkpt lat="43.3492" lon="2.72924">
        <ele>186.744</ele>
        <time>2011-03-20T11:33:55Z</time>
      </trkpt>
      <trkpt lat="43.3494" lon="2.72951">
        <ele>187.572</ele>
        <time>2011-03-20T11:34:16Z</time>
      </trkpt>
      <trkpt lat="43.34945" lon="2.72972">
        <ele>188.331</ele>
        <time>2011-03-20T11:34:29Z</time>
      </trkpt>
      <trkpt lat="43.34947" lon="2.72977">
        <ele>188.279</ele>
        <time>2011-03-20T11:34:32Z</time>
      </trkpt>
      <trkpt lat="43.34954" lon="2.73001">
        <ele>189.108</ele>
        <time>2011-03-20T11:34:46Z</time>
      </trkpt>
      <trkpt lat="43.3496" lon="2.73028">
        <ele>189.135</ele>
        <time>2011-03-20T11:35:02Z</time>
      </trkpt>
      <trkpt lat="43.34966" lon="2.73054">
        <ele>189.411</ele>
        <time>2011-03-20T11:35:19Z</time>
      </trkpt>
      <trkpt lat="43.34982" lon="2.73076">
        <ele>190.283</ele>
        <time>2011-03-20T11:35:37Z</time>
      </trkpt>
      <trkpt lat="43.35012" lon="2.73082">
        <ele>192.765</ele>
        <time>2011-03-20T11:36:01Z</time>
      </trkpt>
      <trkpt lat="43.35034" lon="2.73085">
        <ele>192.944</ele>
        <time>2011-03-20T11:36:18Z</time>
      </trkpt>
      <trkpt lat="43.35057" lon="2.73094">
        <ele>195.247</ele>
        <time>2011-03-20T11:36:36Z</time>
      </trkpt>
      <trkpt lat="43.35081" lon="2.73116">
        <ele>196.208</ele>
        <time>2011-03-20T11:36:58Z</time>
      </trkpt>
      <trkpt lat="43.35096" lon="2.73141">
        <ele>197.183</ele>
        <time>2011-03-20T11:37:17Z</time>
      </trkpt>
      <trkpt lat="43.35105" lon="2.73163">
        <ele>197.437</ele>
        <time>2011-03-20T11:37:31Z</time>
      </trkpt>
      <trkpt lat="43.35106" lon="2.73172">
        <ele>197.438</ele>
        <time>2011-03-20T11:37:36Z</time>
      </trkpt>
      <trkpt lat="43.35113" lon="2.732">
        <ele>198.381</ele>
        <time>2011-03-20T11:37:52Z</time>
      </trkpt>
      <trkpt lat="43.35118" lon="2.73221">
        <ele>198.566</ele>
        <time>2011-03-20T11:38:03Z</time>
      </trkpt>
      <trkpt lat="43.35124" lon="2.73245">
        <ele>199.111</ele>
        <time>2011-03-20T11:38:18Z</time>
      </trkpt>
      <trkpt lat="43.35127" lon="2.7326">
        <ele>199.356</ele>
        <time>2011-03-20T11:38:27Z</time>
      </trkpt>
      <trkpt lat="43.35133" lon="2.73294">
        <ele>200.015</ele>
        <time>2011-03-20T11:38:47Z</time>
      </trkpt>
      <trkpt lat="43.35134" lon="2.73306">
        <ele>199.927</ele>
        <time>2011-03-20T11:38:53Z</time>
      </trkpt>
      <trkpt lat="43.35134" lon="2.7333">
        <ele>200.075</ele>
        <time>2011-03-20T11:39:06Z</time>
      </trkpt>
      <trkpt lat="43.35134" lon="2.7334">
        <ele>200.271</ele>
        <time>2011-03-20T11:39:11Z</time>
      </trkpt>
      <trkpt lat="43.35134" lon="2.7335">
        <ele>200.008</ele>
        <time>2011-03-20T11:39:17Z</time>
      </trkpt>
      <trkpt lat="43.35134" lon="2.73354">
        <ele>200.091</ele>
        <time>2011-03-20T11:39:19Z</time>
      </trkpt>
      <trkpt lat="43.35136" lon="2.73392">
        <ele>199.781</ele>
        <time>2011-03-20T11:39:39Z</time>
      </trkpt>
      <trkpt lat="43.35137" lon="2.73402">
        <ele>199.779</ele>
        <time>2011-03-20T11:39:44Z</time>
      </trkpt>
      <trkpt lat="43.35139" lon="2.73416">
        <ele>199.544</ele>
        <time>2011-03-20T11:39:51Z</time>
      </trkpt>
      <trkpt lat="43.35146" lon="2.73465">
        <ele>199.666</ele>
        <time>2011-03-20T11:40:17Z</time>
      </trkpt>
      <trkpt lat="43.35146" lon="2.73482">
        <ele>199.705</ele>
        <time>2011-03-20T11:40:26Z</time>
      </trkpt>
      <trkpt lat="43.3514" lon="2.73508">
        <ele>199.218</ele>
        <time>2011-03-20T11:40:40Z</time>
      </trkpt>
      <trkpt lat="43.35139" lon="2.73545">
        <ele>198.761</ele>
        <time>2011-03-20T11:40:59Z</time>
      </trkpt>
      <trkpt lat="43.35138" lon="2.73573">
        <ele>199.014</ele>
        <time>2011-03-20T11:41:15Z</time>
      </trkpt>
      <trkpt lat="43.35149" lon="2.73599">
        <ele>199.883</ele>
        <time>2011-03-20T11:41:33Z</time>
      </trkpt>
      <trkpt lat="43.35166" lon="2.73615">
        <ele>201.66</ele>
        <time>2011-03-20T11:41:48Z</time>
      </trkpt>
      <trkpt lat="43.3519" lon="2.73639">
        <ele>202.327</ele>
        <time>2011-03-20T11:42:10Z</time>
      </trkpt>
      <trkpt lat="43.35207" lon="2.73658">
        <ele>202.133</ele>
        <time>2011-03-20T11:42:26Z</time>
      </trkpt>
      <trkpt lat="43.35228" lon="2.73684">
        <ele>201.522</ele>
        <time>2011-03-20T11:42:46Z</time>
      </trkpt>
      <trkpt lat="43.35231" lon="2.7372">
        <ele>200.304</ele>
        <time>2011-03-20T11:43:07Z</time>
      </trkpt>
      <trkpt lat="43.35219" lon="2.73764">
        <ele>197.985</ele>
        <time>2011-03-20T11:43:34Z</time>
      </trkpt>
      <trkpt lat="43.35209" lon="2.73784">
        <ele>197.6</ele>
        <time>2011-03-20T11:43:47Z</time>
      </trkpt>
      <trkpt lat="43.35185" lon="2.73822">
        <ele>195.065</ele>
        <time>2011-03-20T11:44:14Z</time>
      </trkpt>
      <trkpt lat="43.35163" lon="2.73863">
        <ele>192.131</ele>
        <time>2011-03-20T11:44:41Z</time>
      </trkpt>
      <trkpt lat="43.35149" lon="2.73899">
        <ele>190.223</ele>
        <time>2011-03-20T11:45:03Z</time>
      </trkpt>
      <trkpt lat="43.3514" lon="2.73942">
        <ele>187.546</ele>
        <time>2011-03-20T11:45:27Z</time>
      </trkpt>
      <trkpt lat="43.35138" lon="2.73963">
        <ele>187.119</ele>
        <time>2011-03-20T11:45:39Z</time>
      </trkpt>
      <trkpt lat="43.35137" lon="2.73982">
        <ele>186.182</ele>
        <time>2011-03-20T11:45:49Z</time>
      </trkpt>
      <trkpt lat="43.35136" lon="2.7403">
        <ele>183.346</ele>
        <time>2011-03-20T11:46:15Z</time>
      </trkpt>
      <trkpt lat="43.35138" lon="2.74036">
        <ele>182.523</ele>
        <time>2011-03-20T11:46:19Z</time>
      </trkpt>
      <trkpt lat="43.35155" lon="2.7405">
        <ele>181.539</ele>
        <time>2011-03-20T11:46:32Z</time>
      </trkpt>
      <trkpt lat="43.35173" lon="2.74053">
        <ele>182.323</ele>
        <time>2011-03-20T11:46:45Z</time>
      </trkpt>
      <trkpt lat="43.35199" lon="2.74044">
        <ele>182.686</ele>
        <time>2011-03-20T11:47:03Z</time>
      </trkpt>
      <trkpt lat="43.35213" lon="2.74027">
        <ele>183.662</ele>
        <time>2011-03-20T11:47:17Z</time>
      </trkpt>
      <trkpt lat="43.35214" lon="2.74026">
        <ele>183.663</ele>
        <time>2011-03-20T11:47:18Z</time>
      </trkpt>
      <trkpt lat="43.35218" lon="2.74025">
        <ele>184.877</ele>
        <time>2011-03-20T11:47:23Z</time>
      </trkpt>
      <trkpt lat="43.3522" lon="2.74022">
        <ele>185.173</ele>
        <time>2011-03-20T11:47:27Z</time>
      </trkpt>
      <trkpt lat="43.35222" lon="2.74001">
        <ele>187.04</ele>
        <time>2011-03-20T11:47:42Z</time>
      </trkpt>
      <trkpt lat="43.35231" lon="2.73983">
        <ele>188.569</ele>
        <time>2011-03-20T11:47:57Z</time>
      </trkpt>
      <trkpt lat="43.35232" lon="2.7398">
        <ele>188.664</ele>
        <time>2011-03-20T11:47:59Z</time>
      </trkpt>
      <trkpt lat="43.35247" lon="2.73947">
        <ele>191.681</ele>
        <time>2011-03-20T11:48:23Z</time>
      </trkpt>
      <trkpt lat="43.35257" lon="2.73926">
        <ele>192.964</ele>
        <time>2011-03-20T11:48:42Z</time>
      </trkpt>
      <trkpt lat="43.35268" lon="2.73913">
        <ele>194.824</ele>
        <time>2011-03-20T11:48:55Z</time>
      </trkpt>
      <trkpt lat="43.35273" lon="2.7391">
        <ele>195.081</ele>
        <time>2011-03-20T11:48:59Z</time>
      </trkpt>
      <trkpt lat="43.35298" lon="2.73898">
        <ele>197.577</ele>
        <time>2011-03-20T11:49:22Z</time>
      </trkpt>
      <trkpt lat="43.35317" lon="2.73886">
        <ele>198.705</ele>
        <time>2011-03-20T11:49:43Z</time>
      </trkpt>
      <trkpt lat="43.3534" lon="2.73882">
        <ele>201.275</ele>
        <time>2011-03-20T11:50:05Z</time>
      </trkpt>
      <trkpt lat="43.35359" lon="2.73885">
        <ele>202.648</ele>
        <time>2011-03-20T11:50:21Z</time>
      </trkpt>
      <trkpt lat="43.35375" lon="2.73911">
        <ele>204.06</ele>
        <time>2011-03-20T11:50:40Z</time>
      </trkpt>
      <trkpt lat="43.35387" lon="2.7394">
        <ele>207.344</ele>
        <time>2011-03-20T11:51:01Z</time>
      </trkpt>
      <trkpt lat="43.35395" lon="2.73961">
        <ele>208.848</ele>
        <time>2011-03-20T11:51:16Z</time>
      </trkpt>
      <trkpt lat="43.35394" lon="2.73964">
        <ele>208.782</ele>
        <time>2011-03-20T11:51:21Z</time>
      </trkpt>
      <trkpt lat="43.35394" lon="2.73966">
        <ele>209.255</ele>
        <time>2011-03-20T11:51:24Z</time>
      </trkpt>
      <trkpt lat="43.35389" lon="2.73956">
        <ele>208.635</ele>
        <time>2011-03-20T11:51:37Z</time>
      </trkpt>
      <trkpt lat="43.35392" lon="2.73962">
        <ele>208.967</ele>
        <time>2011-03-20T11:51:53Z</time>
      </trkpt>
      <trkpt lat="43.35405" lon="2.73982">
        <ele>210.705</ele>
        <time>2011-03-20T11:52:13Z</time>
      </trkpt>
      <trkpt lat="43.35423" lon="2.74019">
        <ele>210.893</ele>
        <time>2011-03-20T11:52:40Z</time>
      </trkpt>
      <trkpt lat="43.35434" lon="2.74035">
        <ele>210.833</ele>
        <time>2011-03-20T11:52:51Z</time>
      </trkpt>
      <trkpt lat="43.35434" lon="2.74037">
        <ele>210.502</ele>
        <time>2011-03-20T11:52:53Z</time>
      </trkpt>
      <trkpt lat="43.35436" lon="2.74047">
        <ele>209.906</ele>
        <time>2011-03-20T11:53:04Z</time>
      </trkpt>
      <trkpt lat="43.35434" lon="2.74043">
        <ele>210.037</ele>
        <time>2011-03-20T11:53:22Z</time>
      </trkpt>
      <trkpt lat="43.35425" lon="2.7404">
        <ele>210.153</ele>
        <time>2011-03-20T11:53:35Z</time>
      </trkpt>
      <trkpt lat="43.35427" lon="2.7404">
        <ele>210.128</ele>
        <time>2011-03-20T11:53:39Z</time>
      </trkpt>
      <trkpt lat="43.35442" lon="2.74045">
        <ele>210.798</ele>
        <time>2011-03-20T11:53:51Z</time>
      </trkpt>
      <trkpt lat="43.35464" lon="2.74065">
        <ele>211.204</ele>
        <time>2011-03-20T11:54:08Z</time>
      </trkpt>
      <trkpt lat="43.35481" lon="2.74075">
        <ele>213.003</ele>
        <time>2011-03-20T11:54:22Z</time>
      </trkpt>
      <trkpt lat="43.35501" lon="2.74083">
        <ele>212.936</ele>
        <time>2011-03-20T11:54:37Z</time>
      </trkpt>
      <trkpt lat="43.35516" lon="2.7409">
        <ele>213.894</ele>
        <time>2011-03-20T11:54:50Z</time>
      </trkpt>
      <trkpt lat="43.35531" lon="2.74104">
        <ele>214.813</ele>
        <time>2011-03-20T11:55:05Z</time>
      </trkpt>
      <trkpt lat="43.35533" lon="2.7411">
        <ele>215.2</ele>
        <time>2011-03-20T11:55:10Z</time>
      </trkpt>
      <trkpt lat="43.35534" lon="2.74116">
        <ele>214.692</ele>
        <time>2011-03-20T11:55:14Z</time>
      </trkpt>
      <trkpt lat="43.35537" lon="2.74129">
        <ele>216.387</ele>
        <time>2011-03-20T11:55:23Z</time>
      </trkpt>
      <trkpt lat="43.3554" lon="2.74155">
        <ele>216.478</ele>
        <time>2011-03-20T11:55:40Z</time>
      </trkpt>
      <trkpt lat="43.35543" lon="2.74187">
        <ele>216.139</ele>
        <time>2011-03-20T11:55:59Z</time>
      </trkpt>
      <trkpt lat="43.35555" lon="2.74233">
        <ele>216.429</ele>
        <time>2011-03-20T11:56:27Z</time>
      </trkpt>
    </trkseg>
  </trk>
</gpx>